Wetterdaten: Freitag, 12.06.2015
Datum Zeit Temp. Aussen +5cm Feuchte Auss BlattFeu 1 Luftdruck Regen Sonnenschein Regendauer Solar Windben
12.06.2015 00:00 18,7 C 16,1 C 61 % 0 lf 1014,1 hPa 0,0 l/m 0 min 0 min 0 W/m 10,5 km/h (2 Bft)
12.06.2015 00:02 18,7 C 16,1 C 62 % 0 lf 1014,0 hPa 0,0 l/m 0 min 0 min 0 W/m 14,6 km/h (3 Bft)
12.06.2015 00:06 18,6 C 16,1 C 62 % 0 lf 1014,1 hPa 0,0 l/m 0 min 0 min 0 W/m 10,5 km/h (2 Bft)
12.06.2015 00:08 18,6 C 16,1 C 62 % 0 lf 1014,1 hPa 0,0 l/m 0 min 0 min 0 W/m 10,5 km/h (2 Bft)
12.06.2015 00:10 18,6 C 16,1 C 62 % 0 lf 1014,1 hPa 0,0 l/m 0 min 0 min 0 W/m 6,3 km/h (2 Bft)
12.06.2015 00:12 18,6 C 16,1 C 62 % 0 lf 1014,1 hPa 0,0 l/m 0 min 0 min 0 W/m 12,6 km/h (3 Bft)
12.06.2015 00:14 18,5 C 16,1 C 62 % 0 lf 1014,1 hPa 0,0 l/m 0 min 0 min 0 W/m 6,3 km/h (2 Bft)
12.06.2015 00:16 18,5 C 16,1 C 62 % 0 lf 1014,1 hPa 0,0 l/m 0 min 0 min 0 W/m 6,3 km/h (2 Bft)
12.06.2015 00:18 18,5 C 16,1 C 62 % 0 lf 1014,1 hPa 0,0 l/m 0 min 0 min 0 W/m 10,5 km/h (2 Bft)
12.06.2015 00:20 18,4 C 15,6 C 63 % 0 lf 1014,1 hPa 0,0 l/m 0 min 0 min 0 W/m 10,5 km/h (2 Bft)
12.06.2015 00:22 18,4 C 15,6 C 63 % 0 lf 1014,0 hPa 0,0 l/m 0 min 0 min 0 W/m 14,6 km/h (3 Bft)
12.06.2015 00:24 18,4 C 16,1 C 63 % 0 lf 1014,1 hPa 0,0 l/m 0 min 0 min 0 W/m 14,6 km/h (3 Bft)
12.06.2015 00:26 18,4 C 16,1 C 63 % 0 lf 1014,1 hPa 0,0 l/m 0 min 0 min 0 W/m 10,5 km/h (2 Bft)
12.06.2015 00:28 18,4 C 16,1 C 63 % 0 lf 1014,1 hPa 0,0 l/m 0 min 0 min 0 W/m 12,6 km/h (3 Bft)
12.06.2015 00:30 18,3 C 16,1 C 63 % 0 lf 1014,1 hPa 0,0 l/m 0 min 0 min 0 W/m 16,7 km/h (3 Bft)
12.06.2015 00:32 18,3 C 16,1 C 63 % 0 lf 1014,0 hPa 0,0 l/m 0 min 0 min 0 W/m 14,6 km/h (3 Bft)
12.06.2015 00:34 18,3 C 16,1 C 63 % 0 lf 1014,0 hPa 0,0 l/m 0 min 0 min 0 W/m 14,6 km/h (3 Bft)
12.06.2015 00:36 18,3 C 16,1 C 64 % 0 lf 1014,0 hPa 0,0 l/m 0 min 0 min 0 W/m 16,7 km/h (3 Bft)
12.06.2015 00:38 18,2 C 16,1 C 64 % 0 lf 1014,1 hPa 0,0 l/m 0 min 0 min 0 W/m 12,6 km/h (3 Bft)
12.06.2015 00:40 18,2 C 16,1 C 64 % 0 lf 1014,1 hPa 0,0 l/m 0 min 0 min 0 W/m 12,6 km/h (3 Bft)
12.06.2015 00:42 18,2 C 16,1 C 64 % 0 lf 1014,0 hPa 0,0 l/m 0 min 0 min 0 W/m 14,6 km/h (3 Bft)
12.06.2015 00:44 18,1 C 16,1 C 64 % 0 lf 1014,1 hPa 0,0 l/m 0 min 0 min 0 W/m 16,7 km/h (3 Bft)
12.06.2015 00:46 18,1 C 16,1 C 65 % 0 lf 1014,0 hPa 0,0 l/m 0 min 0 min 0 W/m 6,3 km/h (2 Bft)
12.06.2015 00:48 18,1 C 16,1 C 65 % 0 lf 1014,0 hPa 0,0 l/m 0 min 0 min 0 W/m 6,3 km/h (2 Bft)
12.06.2015 00:50 18,1 C 16,1 C 65 % 0 lf 1014,0 hPa 0,0 l/m 0 min 0 min 0 W/m 10,5 km/h (2 Bft)
12.06.2015 00:52 18,0 C 16,1 C 65 % 0 lf 1014,0 hPa 0,0 l/m 0 min 0 min 0 W/m 10,5 km/h (2 Bft)
12.06.2015 00:54 18,0 C 15,6 C 65 % 0 lf 1014,0 hPa 0,0 l/m 0 min 0 min 0 W/m 10,5 km/h (2 Bft)
12.06.2015 00:56 17,9 C 16,1 C 65 % 0 lf 1014,0 hPa 0,0 l/m 0 min 0 min 0 W/m 12,6 km/h (3 Bft)
12.06.2015 00:58 17,9 C 15,6 C 65 % 0 lf 1014,0 hPa 0,0 l/m 0 min 0 min 0 W/m 6,3 km/h (2 Bft)
12.06.2015 01:00 17,9 C 15,6 C 65 % 0 lf 1014,0 hPa 0,0 l/m 0 min 0 min 0 W/m 12,6 km/h (3 Bft)
12.06.2015 01:02 17,9 C 15,6 C 65 % 0 lf 1014,0 hPa 0,0 l/m 0 min 0 min 0 W/m 10,5 km/h (2 Bft)
12.06.2015 01:04 17,8 C 15,6 C 66 % 0 lf 1014,0 hPa 0,0 l/m 0 min 0 min 0 W/m 14,6 km/h (3 Bft)
12.06.2015 01:06 17,8 C 15,6 C 66 % 0 lf 1014,0 hPa 0,0 l/m 0 min 0 min 0 W/m 16,7 km/h (3 Bft)
12.06.2015 01:08 17,8 C 15,6 C 66 % 0 lf 1014,0 hPa 0,0 l/m 0 min 0 min 0 W/m 14,6 km/h (3 Bft)
12.06.2015 01:10 17,7 C 15,6 C 67 % 0 lf 1014,0 hPa 0,0 l/m 0 min 0 min 0 W/m 10,5 km/h (2 Bft)
12.06.2015 01:12 17,7 C 15,6 C 67 % 0 lf 1014,0 hPa 0,0 l/m 0 min 0 min 0 W/m 12,6 km/h (3 Bft)
12.06.2015 01:14 17,7 C 15,6 C 67 % 0 lf 1013,9 hPa 0,0 l/m 0 min 0 min 0 W/m 12,6 km/h (3 Bft)
12.06.2015 01:16 17,7 C 15,6 C 67 % 0 lf 1013,9 hPa 0,0 l/m 0 min 0 min 0 W/m 10,5 km/h (2 Bft)
12.06.2015 01:18 17,7 C 15,6 C 67 % 0 lf 1013,9 hPa 0,0 l/m 0 min 0 min 0 W/m 10,5 km/h (2 Bft)
12.06.2015 01:20 17,6 C 15,6 C 67 % 0 lf 1013,9 hPa 0,0 l/m 0 min 0 min 0 W/m 10,5 km/h (2 Bft)
12.06.2015 01:22 17,6 C 15,6 C 68 % 0 lf 1013,9 hPa 0,0 l/m 0 min 0 min 0 W/m 10,5 km/h (2 Bft)
12.06.2015 01:24 17,6 C 15,6 C 68 % 0 lf 1013,9 hPa 0,0 l/m 0 min 0 min 0 W/m 12,6 km/h (3 Bft)
12.06.2015 01:26 17,6 C 15,6 C 68 % 0 lf 1013,8 hPa 0,0 l/m 0 min 0 min 0 W/m 10,5 km/h (2 Bft)
12.06.2015 01:28 17,5 C 15,6 C 68 % 0 lf 1013,8 hPa 0,0 l/m 0 min 0 min 0 W/m 10,5 km/h (2 Bft)
12.06.2015 01:30 17,4 C 15,0 C 68 % 0 lf 1013,8 hPa 0,0 l/m 0 min 0 min 0 W/m 6,3 km/h (2 Bft)
12.06.2015 01:32 17,4 C 15,0 C 68 % 0 lf 1013,7 hPa 0,0 l/m 0 min 0 min 0 W/m 4,2 km/h (1 Bft)
12.06.2015 01:34 17,4 C 15,0 C 68 % 0 lf 1013,7 hPa 0,0 l/m 0 min 0 min 0 W/m 4,2 km/h (1 Bft)
12.06.2015 01:36 17,4 C 15,0 C 68 % 0 lf 1013,7 hPa 0,0 l/m 0 min 0 min 0 W/m 2,1 km/h (1 Bft)
12.06.2015 01:38 17,4 C 15,0 C 68 % 0 lf 1013,7 hPa 0,0 l/m 0 min 0 min 0 W/m 6,3 km/h (2 Bft)
12.06.2015 01:40 17,4 C 15,0 C 68 % 0 lf 1013,7 hPa 0,0 l/m 0 min 0 min 0 W/m 10,5 km/h (2 Bft)
12.06.2015 01:42 17,3 C 14,4 C 68 % 0 lf 1013,7 hPa 0,0 l/m 0 min 0 min 0 W/m 6,3 km/h (2 Bft)
12.06.2015 01:44 17,3 C 14,4 C 68 % 0 lf 1013,6 hPa 0,0 l/m 0 min 0 min 0 W/m 8,4 km/h (2 Bft)
12.06.2015 01:46 17,3 C 14,4 C 68 % 0 lf 1013,5 hPa 0,0 l/m 0 min 0 min 0 W/m 6,3 km/h (2 Bft)
12.06.2015 01:48 17,2 C 15,0 C 69 % 0 lf 1013,5 hPa 0,0 l/m 0 min 0 min 0 W/m 12,6 km/h (3 Bft)
12.06.2015 01:50 17,2 C 15,0 C 69 % 0 lf 1013,5 hPa 0,0 l/m 0 min 0 min 0 W/m 10,5 km/h (2 Bft)
12.06.2015 01:52 17,2 C 15,0 C 69 % 0 lf 1013,4 hPa 0,0 l/m 0 min 0 min 0 W/m 10,5 km/h (2 Bft)
12.06.2015 01:54 17,1 C 15,0 C 69 % 0 lf 1013,4 hPa 0,0 l/m 0 min 0 min 0 W/m 6,3 km/h (2 Bft)
12.06.2015 01:56 17,1 C 15,0 C 69 % 0 lf 1013,4 hPa 0,0 l/m 0 min 0 min 0 W/m 10,5 km/h (2 Bft)
12.06.2015 01:58 17,1 C 15,0 C 69 % 0 lf 1013,4 hPa 0,0 l/m 0 min 0 min 0 W/m 10,5 km/h (2 Bft)
12.06.2015 02:00 17,1 C 15,0 C 69 % 0 lf 1013,5 hPa 0,0 l/m 0 min 0 min 0 W/m 10,5 km/h (2 Bft)
12.06.2015 02:02 17,1 C 15,0 C 69 % 0 lf 1013,4 hPa 0,0 l/m 0 min 0 min 0 W/m 12,6 km/h (3 Bft)
12.06.2015 02:04 17,0 C 15,0 C 70 % 0 lf 1013,4 hPa 0,0 l/m 0 min 0 min 0 W/m 10,5 km/h (2 Bft)
12.06.2015 02:06 17,0 C 15,0 C 70 % 0 lf 1013,3 hPa 0,0 l/m 0 min 0 min 0 W/m 10,5 km/h (2 Bft)
12.06.2015 02:08 16,9 C 15,0 C 70 % 0 lf 1013,3 hPa 0,0 l/m 0 min 0 min 0 W/m 10,5 km/h (2 Bft)
12.06.2015 02:10 16,9 C 15,0 C 70 % 0 lf 1013,3 hPa 0,0 l/m 0 min 0 min 0 W/m 10,5 km/h (2 Bft)
12.06.2015 02:12 16,9 C 15,0 C 70 % 0 lf 1013,3 hPa 0,0 l/m 0 min 0 min 0 W/m 10,5 km/h (2 Bft)
12.06.2015 02:14 16,9 C 15,0 C 70 % 0 lf 1013,3 hPa 0,0 l/m 0 min 0 min 0 W/m 6,3 km/h (2 Bft)
12.06.2015 02:16 16,9 C 14,4 C 70 % 0 lf 1013,3 hPa 0,0 l/m 0 min 0 min 0 W/m 6,3 km/h (2 Bft)
12.06.2015 02:18 16,8 C 14,4 C 70 % 0 lf 1013,3 hPa 0,0 l/m 0 min 0 min 0 W/m 6,3 km/h (2 Bft)
12.06.2015 02:20 16,8 C 14,4 C 70 % 0 lf 1013,3 hPa 0,0 l/m 0 min 0 min 0 W/m 6,3 km/h (2 Bft)
12.06.2015 02:22 16,8 C 14,4 C 70 % 0 lf 1013,3 hPa 0,0 l/m 0 min 0 min 0 W/m 6,3 km/h (2 Bft)
12.06.2015 02:24 16,8 C 14,4 C 70 % 0 lf 1013,3 hPa 0,0 l/m 0 min 0 min 0 W/m 6,3 km/h (2 Bft)
12.06.2015 02:26 16,8 C 14,4 C 70 % 0 lf 1013,3 hPa 0,0 l/m 0 min 0 min 0 W/m 6,3 km/h (2 Bft)
12.06.2015 02:28 16,7 C 14,4 C 70 % 0 lf 1013,2 hPa 0,0 l/m 0 min 0 min 0 W/m 6,3 km/h (2 Bft)
12.06.2015 02:30 16,7 C 14,4 C 71 % 0 lf 1013,3 hPa 0,0 l/m 0 min 0 min 0 W/m 6,3 km/h (2 Bft)
12.06.2015 02:32 16,7 C 14,4 C 71 % 0 lf 1013,2 hPa 0,0 l/m 0 min 0 min 0 W/m 6,3 km/h (2 Bft)
12.06.2015 02:34 16,7 C 13,9 C 71 % 0 lf 1013,2 hPa 0,0 l/m 0 min 0 min 0 W/m 6,3 km/h (2 Bft)
12.06.2015 02:36 16,7 C 13,9 C 71 % 0 lf 1013,3 hPa 0,0 l/m 0 min 0 min 0 W/m 6,3 km/h (2 Bft)
12.06.2015 02:38 16,6 C 13,9 C 71 % 0 lf 1013,3 hPa 0,0 l/m 0 min 0 min 0 W/m 8,4 km/h (2 Bft)
12.06.2015 02:40 16,6 C 13,9 C 71 % 0 lf 1013,3 hPa 0,0 l/m 0 min 0 min 0 W/m 8,4 km/h (2 Bft)
12.06.2015 02:42 16,6 C 13,9 C 71 % 0 lf 1013,3 hPa 0,0 l/m 0 min 0 min 0 W/m 10,5 km/h (2 Bft)
12.06.2015 02:44 16,6 C 13,9 C 72 % 0 lf 1013,2 hPa 0,0 l/m 0 min 0 min 0 W/m 6,3 km/h (2 Bft)
12.06.2015 02:46 16,5 C 13,9 C 72 % 0 lf 1013,2 hPa 0,0 l/m 0 min 0 min 0 W/m 6,3 km/h (2 Bft)
12.06.2015 02:48 16,5 C 13,9 C 72 % 0 lf 1013,3 hPa 0,0 l/m 0 min 0 min 0 W/m 8,4 km/h (2 Bft)
12.06.2015 02:50 16,5 C 13,9 C 72 % 0 lf 1013,2 hPa 0,0 l/m 0 min 0 min 0 W/m 10,5 km/h (2 Bft)
12.06.2015 02:52 16,4 C 13,9 C 72 % 0 lf 1013,2 hPa 0,0 l/m 0 min 0 min 0 W/m 8,4 km/h (2 Bft)
12.06.2015 02:54 16,4 C 13,9 C 72 % 0 lf 1013,2 hPa 0,0 l/m 0 min 0 min 0 W/m 8,4 km/h (2 Bft)
12.06.2015 02:56 16,4 C 13,9 C 72 % 0 lf 1013,2 hPa 0,0 l/m 0 min 0 min 0 W/m 8,4 km/h (2 Bft)
12.06.2015 02:58 16,4 C 13,9 C 72 % 0 lf 1013,2 hPa 0,0 l/m 0 min 0 min 0 W/m 6,3 km/h (2 Bft)
12.06.2015 03:00 16,3 C 13,9 C 72 % 0 lf 1013,2 hPa 0,0 l/m 0 min 0 min 0 W/m 8,4 km/h (2 Bft)
12.06.2015 03:02 16,3 C 13,3 C 72 % 0 lf 1013,2 hPa 0,0 l/m 0 min 0 min 0 W/m 4,2 km/h (1 Bft)
12.06.2015 03:04 16,3 C 13,3 C 72 % 0 lf 1013,2 hPa 0,0 l/m 0 min 0 min 0 W/m 4,2 km/h (1 Bft)
12.06.2015 03:06 16,3 C 13,3 C 72 % 0 lf 1013,2 hPa 0,0 l/m 0 min 0 min 0 W/m 6,3 km/h (2 Bft)
12.06.2015 03:08 16,2 C 13,3 C 72 % 0 lf 1013,2 hPa 0,0 l/m 0 min 0 min 0 W/m 4,2 km/h (1 Bft)
12.06.2015 03:10 16,2 C 13,3 C 72 % 0 lf 1013,2 hPa 0,0 l/m 0 min 0 min 0 W/m 4,2 km/h (1 Bft)
12.06.2015 03:12 16,2 C 13,3 C 73 % 0 lf 1013,2 hPa 0,0 l/m 0 min 0 min 0 W/m 6,3 km/h (2 Bft)
12.06.2015 03:14 16,2 C 13,3 C 72 % 0 lf 1013,2 hPa 0,0 l/m 0 min 0 min 0 W/m 4,2 km/h (1 Bft)
12.06.2015 03:16 16,1 C 12,8 C 72 % 0 lf 1013,2 hPa 0,0 l/m 0 min 0 min 0 W/m 6,3 km/h (2 Bft)
12.06.2015 03:18 16,1 C 12,8 C 72 % 0 lf 1013,2 hPa 0,0 l/m 0 min 0 min 0 W/m 6,3 km/h (2 Bft)
12.06.2015 03:20 16,1 C 13,3 C 73 % 0 lf 1013,2 hPa 0,0 l/m 0 min 0 min 0 W/m 4,2 km/h (1 Bft)
12.06.2015 03:22 16,0 C 12,8 C 72 % 0 lf 1013,1 hPa 0,0 l/m 0 min 0 min 0 W/m 6,3 km/h (2 Bft)
12.06.2015 03:24 16,0 C 12,8 C 73 % 0 lf 1013,1 hPa 0,0 l/m 0 min 0 min 0 W/m 6,3 km/h (2 Bft)
12.06.2015 03:26 15,9 C 12,8 C 72 % 0 lf 1013,1 hPa 0,0 l/m 0 min 0 min 0 W/m 6,3 km/h (2 Bft)
12.06.2015 03:28 15,9 C 12,8 C 73 % 0 lf 1013,0 hPa 0,0 l/m 0 min 0 min 0 W/m 6,3 km/h (2 Bft)
12.06.2015 03:30 15,9 C 12,8 C 73 % 0 lf 1013,0 hPa 0,0 l/m 0 min 0 min 0 W/m 4,2 km/h (1 Bft)
12.06.2015 03:32 15,8 C 12,8 C 73 % 0 lf 1013,0 hPa 0,0 l/m 0 min 0 min 0 W/m 4,2 km/h (1 Bft)
12.06.2015 03:34 15,8 C 12,8 C 73 % 0 lf 1013,0 hPa 0,0 l/m 0 min 0 min 0 W/m 2,1 km/h (1 Bft)
12.06.2015 03:36 15,8 C 12,8 C 73 % 0 lf 1013,0 hPa 0,0 l/m 0 min 0 min 0 W/m 4,2 km/h (1 Bft)
12.06.2015 03:38 15,7 C 12,8 C 73 % 0 lf 1013,0 hPa 0,0 l/m 0 min 0 min 0 W/m 4,2 km/h (1 Bft)
12.06.2015 03:40 15,7 C 12,8 C 73 % 0 lf 1013,0 hPa 0,0 l/m 0 min 0 min 0 W/m 6,3 km/h (2 Bft)
12.06.2015 03:42 15,7 C 12,8 C 73 % 0 lf 1013,0 hPa 0,0 l/m 0 min 0 min 0 W/m 4,2 km/h (1 Bft)
12.06.2015 03:44 15,6 C 12,8 C 73 % 0 lf 1012,9 hPa 0,0 l/m 0 min 0 min 0 W/m 2,1 km/h (1 Bft)
12.06.2015 03:46 15,6 C 12,2 C 73 % 0 lf 1012,9 hPa 0,0 l/m 0 min 0 min 0 W/m 2,1 km/h (1 Bft)
12.06.2015 03:48 15,6 C 12,2 C 73 % 0 lf 1012,9 hPa 0,0 l/m 0 min 0 min 0 W/m 2,1 km/h (1 Bft)
12.06.2015 03:50 15,5 C 12,2 C 73 % 0 lf 1012,8 hPa 0,0 l/m 0 min 0 min 0 W/m 6,3 km/h (2 Bft)
12.06.2015 03:52 15,4 C 12,2 C 73 % 0 lf 1012,8 hPa 0,0 l/m 0 min 0 min 0 W/m 4,2 km/h (1 Bft)
12.06.2015 03:54 15,4 C 12,2 C 73 % 0 lf 1012,8 hPa 0,0 l/m 0 min 0 min 0 W/m 4,2 km/h (1 Bft)
12.06.2015 03:56 15,4 C 12,2 C 74 % 0 lf 1012,8 hPa 0,0 l/m 0 min 0 min 0 W/m 4,2 km/h (1 Bft)
12.06.2015 03:58 15,3 C 12,2 C 74 % 0 lf 1012,8 hPa 0,0 l/m 0 min 0 min 0 W/m 2,1 km/h (1 Bft)
12.06.2015 04:00 15,3 C 12,2 C 74 % 0 lf 1012,8 hPa 0,0 l/m 0 min 0 min 0 W/m 2,1 km/h (1 Bft)
12.06.2015 04:02 15,2 C 12,2 C 74 % 0 lf 1012,8 hPa 0,0 l/m 0 min 0 min 0 W/m 2,1 km/h (1 Bft)
12.06.2015 04:04 15,2 C 12,2 C 74 % 0 lf 1012,8 hPa 0,0 l/m 0 min 0 min 0 W/m 2,1 km/h (1 Bft)
12.06.2015 04:06 15,1 C 12,2 C 74 % 0 lf 1012,7 hPa 0,0 l/m 0 min 0 min 0 W/m 2,1 km/h (1 Bft)
12.06.2015 04:08 15,1 C 12,2 C 74 % 0 lf 1012,7 hPa 0,0 l/m 0 min 0 min 0 W/m 2,1 km/h (1 Bft)
12.06.2015 04:10 15,1 C 12,2 C 74 % 0 lf 1012,8 hPa 0,0 l/m 0 min 0 min 0 W/m 4,2 km/h (1 Bft)
12.06.2015 04:12 15,0 C 11,7 C 74 % 0 lf 1012,8 hPa 0,0 l/m 0 min 0 min 0 W/m 4,2 km/h (1 Bft)
12.06.2015 04:14 14,9 C 11,7 C 75 % 0 lf 1012,8 hPa 0,0 l/m 0 min 0 min 0 W/m 4,2 km/h (1 Bft)
12.06.2015 04:16 14,9 C 11,7 C 75 % 0 lf 1012,8 hPa 0,0 l/m 0 min 0 min 0 W/m 4,2 km/h (1 Bft)
12.06.2015 04:18 14,9 C 11,7 C 75 % 0 lf 1012,7 hPa 0,0 l/m 0 min 0 min 0 W/m 4,2 km/h (1 Bft)
12.06.2015 04:20 14,8 C 11,7 C 75 % 0 lf 1012,7 hPa 0,0 l/m 0 min 0 min 0 W/m 4,2 km/h (1 Bft)
12.06.2015 04:22 14,8 C 11,7 C 75 % 0 lf 1012,7 hPa 0,0 l/m 0 min 0 min 0 W/m 4,2 km/h (1 Bft)
12.06.2015 04:24 14,7 C 11,7 C 75 % 0 lf 1012,6 hPa 0,0 l/m 0 min 0 min 0 W/m 6,3 km/h (2 Bft)
12.06.2015 04:26 14,7 C 11,7 C 76 % 0 lf 1012,6 hPa 0,0 l/m 0 min 0 min 0 W/m 6,3 km/h (2 Bft)
12.06.2015 04:28 14,6 C 11,7 C 76 % 0 lf 1012,6 hPa 0,0 l/m 0 min 0 min 0 W/m 6,3 km/h (2 Bft)
12.06.2015 04:30 14,6 C 11,7 C 76 % 0 lf 1012,6 hPa 0,0 l/m 0 min 0 min 0 W/m 2,1 km/h (1 Bft)
12.06.2015 04:32 14,5 C 11,7 C 76 % 0 lf 1012,6 hPa 0,0 l/m 0 min 0 min 0 W/m 2,1 km/h (1 Bft)
12.06.2015 04:34 14,4 C 11,7 C 76 % 0 lf 1012,5 hPa 0,0 l/m 0 min 0 min 0 W/m 2,1 km/h (1 Bft)
12.06.2015 04:36 14,4 C 11,7 C 76 % 0 lf 1012,5 hPa 0,0 l/m 0 min 0 min 0 W/m 2,1 km/h (1 Bft)
12.06.2015 04:38 14,4 C 11,7 C 77 % 0 lf 1012,5 hPa 0,0 l/m 0 min 0 min 0 W/m 4,2 km/h (1 Bft)
12.06.2015 04:40 14,3 C 11,7 C 77 % 0 lf 1012,4 hPa 0,0 l/m 0 min 0 min 0 W/m 4,2 km/h (1 Bft)
12.06.2015 04:42 14,2 C 11,7 C 77 % 0 lf 1012,4 hPa 0,0 l/m 0 min 0 min 0 W/m 4,2 km/h (1 Bft)
12.06.2015 04:44 14,2 C 11,7 C 77 % 0 lf 1012,4 hPa 0,0 l/m 0 min 0 min 0 W/m 2,1 km/h (1 Bft)
12.06.2015 04:46 14,2 C 11,7 C 78 % 0 lf 1012,4 hPa 0,0 l/m 0 min 0 min 0 W/m 4,2 km/h (1 Bft)
12.06.2015 04:48 14,2 C 11,7 C 78 % 0 lf 1012,3 hPa 0,0 l/m 0 min 0 min 0 W/m 4,2 km/h (1 Bft)
12.06.2015 04:50 14,2 C 11,7 C 78 % 0 lf 1012,4 hPa 0,0 l/m 0 min 0 min 0 W/m 4,2 km/h (1 Bft)
12.06.2015 04:52 14,2 C 11,7 C 78 % 0 lf 1012,4 hPa 0,0 l/m 0 min 0 min 0 W/m 4,2 km/h (1 Bft)
12.06.2015 04:54 14,2 C 11,7 C 78 % 0 lf 1012,4 hPa 0,0 l/m 0 min 0 min 0 W/m 2,1 km/h (1 Bft)
12.06.2015 04:56 14,1 C 11,7 C 78 % 0 lf 1012,4 hPa 0,0 l/m 0 min 0 min 0 W/m 4,2 km/h (1 Bft)
12.06.2015 04:58 14,1 C 11,1 C 79 % 0 lf 1012,5 hPa 0,0 l/m 0 min 0 min 0 W/m 4,2 km/h (1 Bft)
12.06.2015 05:00 14,0 C 11,1 C 79 % 0 lf 1012,4 hPa 0,0 l/m 0 min 0 min 0 W/m 4,2 km/h (1 Bft)
12.06.2015 05:02 13,9 C 11,1 C 79 % 0 lf 1012,5 hPa 0,0 l/m 0 min 0 min 0 W/m 4,2 km/h (1 Bft)
12.06.2015 05:04 13,9 C 11,1 C 79 % 0 lf 1012,5 hPa 0,0 l/m 0 min 0 min 0 W/m 2,1 km/h (1 Bft)
12.06.2015 05:06 13,9 C 11,1 C 79 % 0 lf 1012,5 hPa 0,0 l/m 0 min 0 min 0 W/m 4,2 km/h (1 Bft)
12.06.2015 05:08 13,8 C 11,1 C 79 % 0 lf 1012,5 hPa 0,0 l/m 0 min 0 min 0 W/m 4,2 km/h (1 Bft)
12.06.2015 05:10 13,8 C 11,1 C 79 % 0 lf 1012,5 hPa 0,0 l/m 0 min 0 min 0 W/m 2,1 km/h (1 Bft)
12.06.2015 05:12 13,7 C 11,1 C 79 % 1 lf 1012,5 hPa 0,0 l/m 0 min 0 min 2 W/m 2,1 km/h (1 Bft)
12.06.2015 05:14 13,7 C 11,1 C 79 % 1 lf 1012,5 hPa 0,0 l/m 0 min 0 min 5 W/m 0,0 km/h (0 Bft)
12.06.2015 05:16 13,7 C 11,1 C 79 % 1 lf 1012,5 hPa 0,0 l/m 0 min 0 min 5 W/m 0,0 km/h (0 Bft)
12.06.2015 05:18 13,7 C 11,1 C 79 % 1 lf 1012,5 hPa 0,0 l/m 0 min 0 min 5 W/m 2,1 km/h (1 Bft)
12.06.2015 05:20 13,6 C 11,1 C 79 % 1 lf 1012,5 hPa 0,0 l/m 0 min 0 min 5 W/m 0,0 km/h (0 Bft)
12.06.2015 05:22 13,6 C 11,1 C 79 % 1 lf 1012,5 hPa 0,0 l/m 0 min 0 min 7 W/m 0,0 km/h (0 Bft)
12.06.2015 05:24 13,5 C 11,1 C 79 % 1 lf 1012,5 hPa 0,0 l/m 0 min 0 min 7 W/m 0,0 km/h (0 Bft)
12.06.2015 05:26 13,5 C 11,1 C 79 % 1 lf 1012,5 hPa 0,0 l/m 0 min 0 min 8 W/m 0,0 km/h (0 Bft)
12.06.2015 05:28 13,4 C 11,1 C 79 % 1 lf 1012,5 hPa 0,0 l/m 0 min 0 min 9 W/m 0,0 km/h (0 Bft)
12.06.2015 05:30 13,4 C 11,1 C 79 % 1 lf 1012,5 hPa 0,0 l/m 0 min 0 min 10 W/m 0,0 km/h (0 Bft)
12.06.2015 05:32 13,4 C 11,1 C 79 % 1 lf 1012,5 hPa 0,0 l/m 0 min 0 min 11 W/m 2,1 km/h (1 Bft)
12.06.2015 05:34 13,3 C 11,1 C 79 % 1 lf 1012,5 hPa 0,0 l/m 0 min 0 min 11 W/m 0,0 km/h (0 Bft)
12.06.2015 05:36 13,3 C 11,1 C 80 % 1 lf 1012,5 hPa 0,0 l/m 0 min 0 min 12 W/m 0,0 km/h (0 Bft)
12.06.2015 05:38 13,3 C 11,1 C 80 % 1 lf 1012,5 hPa 0,0 l/m 0 min 0 min 13 W/m 0,0 km/h (0 Bft)
12.06.2015 05:40 13,2 C 11,1 C 80 % 1 lf 1012,5 hPa 0,0 l/m 0 min 0 min 14 W/m 0,0 km/h (0 Bft)
12.06.2015 05:42 13,2 C 11,1 C 80 % 1 lf 1012,4 hPa 0,0 l/m 0 min 0 min 17 W/m 0,0 km/h (0 Bft)
12.06.2015 05:44 13,2 C 11,1 C 80 % 1 lf 1012,4 hPa 0,0 l/m 0 min 0 min 18 W/m 0,0 km/h (0 Bft)
12.06.2015 05:46 13,1 C 10,6 C 80 % 1 lf 1012,5 hPa 0,0 l/m 0 min 0 min 20 W/m 0,0 km/h (0 Bft)
12.06.2015 05:48 13,1 C 10,6 C 80 % 1 lf 1012,5 hPa 0,0 l/m 0 min 0 min 21 W/m 0,0 km/h (0 Bft)
12.06.2015 05:50 13,1 C 10,6 C 80 % 1 lf 1012,4 hPa 0,0 l/m 0 min 0 min 24 W/m 2,1 km/h (1 Bft)
12.06.2015 05:52 13,0 C 10,6 C 80 % 1 lf 1012,5 hPa 0,0 l/m 0 min 0 min 26 W/m 2,1 km/h (1 Bft)
12.06.2015 05:54 13,0 C 10,6 C 81 % 1 lf 1012,4 hPa 0,0 l/m 0 min 0 min 28 W/m 2,1 km/h (1 Bft)
12.06.2015 05:56 12,9 C 10,6 C 81 % 1 lf 1012,4 hPa 0,0 l/m 0 min 0 min 31 W/m 2,1 km/h (1 Bft)
12.06.2015 05:58 12,9 C 10,6 C 81 % 1 lf 1012,4 hPa 0,0 l/m 0 min 0 min 33 W/m 0,0 km/h (0 Bft)
12.06.2015 06:00 12,9 C 11,1 C 81 % 1 lf 1012,5 hPa 0,0 l/m 0 min 0 min 36 W/m 2,1 km/h (1 Bft)
12.06.2015 06:02 12,9 C 11,1 C 81 % 1 lf 1012,4 hPa 0,0 l/m 2 min 0 min 40 W/m 2,1 km/h (1 Bft)
12.06.2015 06:06 12,8 C 11,1 C 82 % 1 lf 1012,4 hPa 0,0 l/m 2 min 0 min 44 W/m 2,1 km/h (1 Bft)
12.06.2015 06:08 12,8 C 11,1 C 82 % 1 lf 1012,5 hPa 0,0 l/m 2 min 0 min 50 W/m 2,1 km/h (1 Bft)
12.06.2015 06:10 12,8 C 11,1 C 82 % 0 lf 1012,5 hPa 0,0 l/m 2 min 0 min 53 W/m 2,1 km/h (1 Bft)
12.06.2015 06:12 12,8 C 11,1 C 83 % 0 lf 1012,5 hPa 0,0 l/m 2 min 0 min 57 W/m 4,2 km/h (1 Bft)
12.06.2015 06:14 12,8 C 11,1 C 83 % 0 lf 1012,5 hPa 0,0 l/m 2 min 0 min 61 W/m 4,2 km/h (1 Bft)
12.06.2015 06:16 12,8 C 11,1 C 83 % 0 lf 1012,5 hPa 0,0 l/m 2 min 0 min 65 W/m 4,2 km/h (1 Bft)
12.06.2015 06:18 12,8 C 11,1 C 83 % 0 lf 1012,5 hPa 0,0 l/m 2 min 0 min 69 W/m 4,2 km/h (1 Bft)
12.06.2015 06:20 12,7 C 11,1 C 83 % 0 lf 1012,5 hPa 0,0 l/m 2 min 0 min 74 W/m 4,2 km/h (1 Bft)
12.06.2015 06:22 12,7 C 11,1 C 84 % 0 lf 1012,5 hPa 0,0 l/m 2 min 0 min 77 W/m 2,1 km/h (1 Bft)
12.06.2015 06:24 12,7 C 11,1 C 84 % 0 lf 1012,4 hPa 0,0 l/m 2 min 0 min 82 W/m 4,2 km/h (1 Bft)
12.06.2015 06:26 12,7 C 11,1 C 84 % 0 lf 1012,4 hPa 0,0 l/m 2 min 0 min 88 W/m 4,2 km/h (1 Bft)
12.06.2015 06:28 12,7 C 11,1 C 84 % 0 lf 1012,4 hPa 0,0 l/m 2 min 0 min 91 W/m 6,3 km/h (2 Bft)
12.06.2015 06:30 12,7 C 11,1 C 84 % 0 lf 1012,4 hPa 0,0 l/m 2 min 0 min 97 W/m 4,2 km/h (1 Bft)
12.06.2015 06:32 12,8 C 11,1 C 85 % 0 lf 1012,4 hPa 0,0 l/m 2 min 0 min 102 W/m 4,2 km/h (1 Bft)
12.06.2015 06:34 12,8 C 11,1 C 85 % 0 lf 1012,4 hPa 0,0 l/m 2 min 0 min 106 W/m 4,2 km/h (1 Bft)
12.06.2015 06:36 12,8 C 11,1 C 85 % 0 lf 1012,4 hPa 0,0 l/m 2 min 0 min 112 W/m 4,2 km/h (1 Bft)
12.06.2015 06:38 12,8 C 11,1 C 85 % 0 lf 1012,4 hPa 0,0 l/m 2 min 0 min 118 W/m 2,1 km/h (1 Bft)
12.06.2015 06:40 12,8 C 11,7 C 86 % 0 lf 1012,4 hPa 0,0 l/m 2 min 0 min 123 W/m 2,1 km/h (1 Bft)
12.06.2015 06:42 12,8 C 11,7 C 86 % 0 lf 1012,4 hPa 0,0 l/m 2 min 0 min 128 W/m 2,1 km/h (1 Bft)
12.06.2015 06:44 12,9 C 11,7 C 86 % 0 lf 1012,4 hPa 0,0 l/m 2 min 0 min 132 W/m 4,2 km/h (1 Bft)
12.06.2015 06:46 12,9 C 11,7 C 86 % 0 lf 1012,4 hPa 0,0 l/m 2 min 0 min 137 W/m 4,2 km/h (1 Bft)
12.06.2015 06:48 12,9 C 11,7 C 86 % 0 lf 1012,4 hPa 0,0 l/m 2 min 0 min 143 W/m 2,1 km/h (1 Bft)
12.06.2015 06:50 12,9 C 11,7 C 86 % 0 lf 1012,4 hPa 0,0 l/m 2 min 0 min 148 W/m 2,1 km/h (1 Bft)
12.06.2015 06:52 12,9 C 11,7 C 86 % 0 lf 1012,4 hPa 0,0 l/m 2 min 0 min 153 W/m 4,2 km/h (1 Bft)
12.06.2015 06:54 12,9 C 11,7 C 86 % 0 lf 1012,4 hPa 0,0 l/m 2 min 0 min 159 W/m 2,1 km/h (1 Bft)
12.06.2015 06:56 13,0 C 11,7 C 86 % 0 lf 1012,4 hPa 0,0 l/m 2 min 0 min 164 W/m 2,1 km/h (1 Bft)
12.06.2015 06:58 13,0 C 11,7 C 86 % 0 lf 1012,4 hPa 0,0 l/m 2 min 0 min 169 W/m 4,2 km/h (1 Bft)
12.06.2015 07:00 13,1 C 11,7 C 87 % 0 lf 1012,4 hPa 0,0 l/m 2 min 0 min 173 W/m 4,2 km/h (1 Bft)
12.06.2015 07:02 13,1 C 12,2 C 87 % 0 lf 1012,4 hPa 0,0 l/m 2 min 0 min 179 W/m 4,2 km/h (1 Bft)
12.06.2015 07:04 13,1 C 12,2 C 87 % 0 lf 1012,4 hPa 0,0 l/m 2 min 0 min 184 W/m 4,2 km/h (1 Bft)
12.06.2015 07:06 13,2 C 12,2 C 87 % 0 lf 1012,4 hPa 0,0 l/m 2 min 0 min 189 W/m 10,5 km/h (2 Bft)
12.06.2015 07:08 13,2 C 12,2 C 87 % 0 lf 1012,4 hPa 0,0 l/m 2 min 0 min 195 W/m 6,3 km/h (2 Bft)
12.06.2015 07:10 13,2 C 12,8 C 87 % 0 lf 1012,4 hPa 0,0 l/m 2 min 0 min 200 W/m 10,5 km/h (2 Bft)
12.06.2015 07:12 13,3 C 12,8 C 87 % 0 lf 1012,3 hPa 0,0 l/m 2 min 0 min 206 W/m 12,6 km/h (3 Bft)
12.06.2015 07:14 13,4 C 12,8 C 87 % 0 lf 1012,3 hPa 0,0 l/m 2 min 0 min 211 W/m 12,6 km/h (3 Bft)
12.06.2015 07:16 13,4 C 13,3 C 87 % 0 lf 1012,3 hPa 0,0 l/m 2 min 0 min 216 W/m 10,5 km/h (2 Bft)
12.06.2015 07:18 13,6 C 13,3 C 87 % 0 lf 1012,3 hPa 0,0 l/m 2 min 0 min 221 W/m 10,5 km/h (2 Bft)
12.06.2015 07:20 13,6 C 13,3 C 87 % 0 lf 1012,4 hPa 0,0 l/m 2 min 0 min 227 W/m 6,3 km/h (2 Bft)
12.06.2015 07:22 13,7 C 13,3 C 86 % 0 lf 1012,4 hPa 0,0 l/m 2 min 0 min 231 W/m 10,5 km/h (2 Bft)
12.06.2015 07:24 13,8 C 13,3 C 87 % 0 lf 1012,4 hPa 0,0 l/m 2 min 0 min 237 W/m 10,5 km/h (2 Bft)
12.06.2015 07:26 13,8 C 13,9 C 86 % 0 lf 1012,4 hPa 0,0 l/m 2 min 0 min 242 W/m 12,6 km/h (3 Bft)
12.06.2015 07:28 13,9 C 13,9 C 86 % 0 lf 1012,4 hPa 0,0 l/m 2 min 0 min 247 W/m 12,6 km/h (3 Bft)
12.06.2015 07:30 14,1 C 13,9 C 86 % 0 lf 1012,3 hPa 0,0 l/m 2 min 0 min 253 W/m 14,6 km/h (3 Bft)
12.06.2015 07:32 14,2 C 13,9 C 86 % 0 lf 1012,3 hPa 0,0 l/m 2 min 0 min 258 W/m 14,6 km/h (3 Bft)
12.06.2015 07:34 14,2 C 13,9 C 85 % 0 lf 1012,3 hPa 0,0 l/m 2 min 0 min 265 W/m 10,5 km/h (2 Bft)
12.06.2015 07:36 14,3 C 13,9 C 85 % 0 lf 1012,4 hPa 0,0 l/m 2 min 0 min 270 W/m 12,6 km/h (3 Bft)
12.06.2015 07:38 14,4 C 14,4 C 85 % 0 lf 1012,3 hPa 0,0 l/m 2 min 0 min 275 W/m 12,6 km/h (3 Bft)
12.06.2015 07:40 14,6 C 14,4 C 84 % 0 lf 1012,4 hPa 0,0 l/m 2 min 0 min 281 W/m 10,5 km/h (2 Bft)
12.06.2015 07:42 14,7 C 14,4 C 84 % 0 lf 1012,4 hPa 0,0 l/m 2 min 0 min 286 W/m 14,6 km/h (3 Bft)
12.06.2015 07:44 14,8 C 14,4 C 83 % 0 lf 1012,5 hPa 0,0 l/m 2 min 0 min 292 W/m 16,7 km/h (3 Bft)
12.06.2015 07:46 14,9 C 14,4 C 83 % 0 lf 1012,4 hPa 0,0 l/m 2 min 0 min 297 W/m 10,5 km/h (2 Bft)
12.06.2015 07:48 14,9 C 14,4 C 83 % 0 lf 1012,4 hPa 0,0 l/m 2 min 0 min 302 W/m 10,5 km/h (2 Bft)
12.06.2015 07:50 15,1 C 15,0 C 82 % 0 lf 1012,4 hPa 0,0 l/m 2 min 0 min 307 W/m 14,6 km/h (3 Bft)
12.06.2015 07:52 15,1 C 15,0 C 82 % 0 lf 1012,4 hPa 0,0 l/m 2 min 0 min 314 W/m 14,6 km/h (3 Bft)
12.06.2015 07:54 15,2 C 15,0 C 82 % 0 lf 1012,4 hPa 0,0 l/m 2 min 0 min 320 W/m 8,4 km/h (2 Bft)
12.06.2015 07:56 15,3 C 15,0 C 82 % 0 lf 1012,4 hPa 0,0 l/m 2 min 0 min 325 W/m 16,7 km/h (3 Bft)
12.06.2015 07:58 15,4 C 15,0 C 81 % 0 lf 1012,4 hPa 0,0 l/m 2 min 0 min 331 W/m 14,6 km/h (3 Bft)
12.06.2015 08:00 15,5 C 15,0 C 81 % 0 lf 1012,4 hPa 0,0 l/m 2 min 0 min 337 W/m 6,3 km/h (2 Bft)
12.06.2015 08:02 15,6 C 15,0 C 81 % 0 lf 1012,4 hPa 0,0 l/m 2 min 0 min 342 W/m 8,4 km/h (2 Bft)
12.06.2015 08:04 15,7 C 15,0 C 80 % 0 lf 1012,4 hPa 0,0 l/m 2 min 0 min 347 W/m 8,4 km/h (2 Bft)
12.06.2015 08:06 15,8 C 15,0 C 80 % 0 lf 1012,4 hPa 0,0 l/m 2 min 0 min 353 W/m 12,6 km/h (3 Bft)
12.06.2015 08:08 15,8 C 15,0 C 80 % 0 lf 1012,4 hPa 0,0 l/m 2 min 0 min 359 W/m 6,3 km/h (2 Bft)
12.06.2015 08:10 15,9 C 15,0 C 80 % 0 lf 1012,4 hPa 0,0 l/m 2 min 0 min 365 W/m 10,5 km/h (2 Bft)
12.06.2015 08:12 16,0 C 15,6 C 80 % 0 lf 1012,4 hPa 0,0 l/m 2 min 0 min 370 W/m 12,6 km/h (3 Bft)
12.06.2015 08:14 16,1 C 15,6 C 79 % 0 lf 1012,4 hPa 0,0 l/m 2 min 0 min 375 W/m 16,7 km/h (3 Bft)
12.06.2015 08:16 16,2 C 15,6 C 79 % 0 lf 1012,4 hPa 0,0 l/m 2 min 0 min 383 W/m 14,6 km/h (3 Bft)
12.06.2015 08:18 16,2 C 15,6 C 78 % 0 lf 1012,4 hPa 0,0 l/m 2 min 0 min 387 W/m 12,6 km/h (3 Bft)
12.06.2015 08:20 16,3 C 15,6 C 78 % 0 lf 1012,4 hPa 0,0 l/m 2 min 0 min 393 W/m 10,5 km/h (2 Bft)
12.06.2015 08:22 16,4 C 15,6 C 78 % 0 lf 1012,4 hPa 0,0 l/m 2 min 0 min 399 W/m 14,6 km/h (3 Bft)
12.06.2015 08:23 16,4 C 15,6 C 78 % 0 lf 1012,4 hPa 0,0 l/m 1 min 0 min 403 W/m 10,5 km/h (2 Bft)
12.06.2015 08:24 16,5 C 15,6 C 78 % 0 lf 1012,4 hPa 0,0 l/m 1 min 0 min 406 W/m 8,4 km/h (2 Bft)
12.06.2015 08:25 16,6 C 16,1 C 78 % 0 lf 1012,4 hPa 0,0 l/m 1 min 0 min 410 W/m 14,6 km/h (3 Bft)
12.06.2015 08:26 16,6 C 16,1 C 78 % 0 lf 1012,4 hPa 0,0 l/m 1 min 0 min 410 W/m 16,7 km/h (3 Bft)
12.06.2015 08:27 16,7 C 16,1 C 78 % 0 lf 1012,4 hPa 0,0 l/m 1 min 0 min 414 W/m 16,7 km/h (3 Bft)
12.06.2015 08:28 16,7 C 16,1 C 78 % 0 lf 1012,4 hPa 0,0 l/m 1 min 0 min 418 W/m 16,7 km/h (3 Bft)
12.06.2015 08:34 17,2 C 16,7 C 75 % 0 lf 1012,3 hPa 0,0 l/m 2 min 0 min 432 W/m 18,8 km/h (3 Bft)
12.06.2015 08:36 17,3 C 16,7 C 74 % 0 lf 1012,3 hPa 0,0 l/m 2 min 0 min 436 W/m 20,9 km/h (4 Bft)
12.06.2015 08:38 17,6 C 16,7 C 73 % 0 lf 1012,3 hPa 0,0 l/m 2 min 0 min 441 W/m 20,9 km/h (4 Bft)
12.06.2015 08:40 17,7 C 16,7 C 73 % 0 lf 1012,3 hPa 0,0 l/m 2 min 0 min 447 W/m 14,6 km/h (3 Bft)
12.06.2015 08:42 17,8 C 16,7 C 73 % 0 lf 1012,3 hPa 0,0 l/m 2 min 0 min 451 W/m 14,6 km/h (3 Bft)
12.06.2015 08:44 18,1 C 16,7 C 72 % 0 lf 1012,3 hPa 0,0 l/m 2 min 0 min 459 W/m 12,6 km/h (3 Bft)
12.06.2015 08:46 18,2 C 17,2 C 72 % 0 lf 1012,3 hPa 0,0 l/m 2 min 0 min 462 W/m 10,5 km/h (2 Bft)
12.06.2015 08:48 18,4 C 17,2 C 71 % 0 lf 1012,3 hPa 0,0 l/m 2 min 0 min 468 W/m 14,6 km/h (3 Bft)
12.06.2015 08:50 18,6 C 17,2 C 70 % 0 lf 1012,3 hPa 0,0 l/m 2 min 0 min 474 W/m 18,8 km/h (3 Bft)
12.06.2015 08:52 18,8 C 17,2 C 69 % 0 lf 1012,2 hPa 0,0 l/m 2 min 0 min 476 W/m 14,6 km/h (3 Bft)
12.06.2015 08:54 19,0 C 17,2 C 69 % 0 lf 1012,2 hPa 0,0 l/m 2 min 0 min 481 W/m 10,5 km/h (2 Bft)
12.06.2015 08:56 19,1 C 17,8 C 69 % 0 lf 1012,2 hPa 0,0 l/m 2 min 0 min 486 W/m 14,6 km/h (3 Bft)
12.06.2015 08:58 19,3 C 17,8 C 69 % 0 lf 1012,2 hPa 0,0 l/m 2 min 0 min 492 W/m 20,9 km/h (4 Bft)
12.06.2015 09:00 19,4 C 17,8 C 68 % 0 lf 1012,0 hPa 0,0 l/m 2 min 0 min 498 W/m 14,6 km/h (3 Bft)
12.06.2015 09:02 19,6 C 18,3 C 67 % 0 lf 1012,0 hPa 0,0 l/m 2 min 0 min 503 W/m 23,0 km/h (4 Bft)
12.06.2015 09:04 19,8 C 18,3 C 66 % 0 lf 1012,0 hPa 0,0 l/m 2 min 0 min 509 W/m 14,6 km/h (3 Bft)
12.06.2015 09:06 20,0 C 18,3 C 66 % 0 lf 1012,1 hPa 0,0 l/m 2 min 0 min 515 W/m 14,6 km/h (3 Bft)
12.06.2015 09:08 20,1 C 18,3 C 66 % 0 lf 1012,1 hPa 0,0 l/m 2 min 0 min 519 W/m 18,8 km/h (3 Bft)
12.06.2015 09:10 20,3 C 18,9 C 65 % 0 lf 1012,1 hPa 0,0 l/m 2 min 0 min 526 W/m 20,9 km/h (4 Bft)
12.06.2015 09:12 20,5 C 18,9 C 64 % 0 lf 1012,1 hPa 0,0 l/m 2 min 0 min 530 W/m 23,0 km/h (4 Bft)
12.06.2015 09:14 20,6 C 18,9 C 64 % 0 lf 1012,1 hPa 0,0 l/m 2 min 0 min 534 W/m 14,6 km/h (3 Bft)
12.06.2015 09:16 20,8 C 18,9 C 63 % 0 lf 1012,1 hPa 0,0 l/m 2 min 0 min 538 W/m 14,6 km/h (3 Bft)
12.06.2015 09:18 20,9 C 18,9 C 62 % 0 lf 1012,1 hPa 0,0 l/m 2 min 0 min 543 W/m 20,9 km/h (4 Bft)
12.06.2015 09:20 21,1 C 18,9 C 62 % 0 lf 1012,1 hPa 0,0 l/m 2 min 0 min 549 W/m 14,6 km/h (3 Bft)
12.06.2015 09:22 21,3 C 19,4 C 61 % 0 lf 1012,1 hPa 0,0 l/m 2 min 0 min 553 W/m 16,7 km/h (3 Bft)
12.06.2015 09:24 21,4 C 19,4 C 60 % 0 lf 1012,1 hPa 0,0 l/m 2 min 0 min 558 W/m 20,9 km/h (4 Bft)
12.06.2015 09:26 21,6 C 19,4 C 60 % 0 lf 1012,1 hPa 0,0 l/m 2 min 0 min 562 W/m 14,6 km/h (3 Bft)
12.06.2015 09:28 21,7 C 19,4 C 60 % 0 lf 1012,1 hPa 0,0 l/m 2 min 0 min 566 W/m 16,7 km/h (3 Bft)
12.06.2015 09:30 21,8 C 19,4 C 61 % 0 lf 1012,1 hPa 0,0 l/m 2 min 0 min 570 W/m 12,6 km/h (3 Bft)
12.06.2015 09:32 21,9 C 19,4 C 60 % 0 lf 1012,1 hPa 0,0 l/m 2 min 0 min 574 W/m 12,6 km/h (3 Bft)
12.06.2015 09:34 22,1 C 19,4 C 60 % 0 lf 1012,1 hPa 0,0 l/m 2 min 0 min 581 W/m 12,6 km/h (3 Bft)
12.06.2015 09:36 22,2 C 20,0 C 59 % 0 lf 1012,1 hPa 0,0 l/m 2 min 0 min 583 W/m 14,6 km/h (3 Bft)
12.06.2015 09:38 22,3 C 20,0 C 59 % 0 lf 1012,1 hPa 0,0 l/m 2 min 0 min 590 W/m 14,6 km/h (3 Bft)
12.06.2015 09:40 22,4 C 20,0 C 59 % 0 lf 1012,1 hPa 0,0 l/m 2 min 0 min 595 W/m 14,6 km/h (3 Bft)
12.06.2015 09:42 22,5 C 20,0 C 58 % 0 lf 1012,1 hPa 0,0 l/m 2 min 0 min 599 W/m 18,8 km/h (3 Bft)
12.06.2015 09:44 22,6 C 20,6 C 57 % 0 lf 1012,0 hPa 0,0 l/m 2 min 0 min 604 W/m 18,8 km/h (3 Bft)
12.06.2015 09:46 22,7 C 20,6 C 56 % 0 lf 1012,0 hPa 0,0 l/m 2 min 0 min 609 W/m 10,5 km/h (2 Bft)
12.06.2015 09:48 22,8 C 20,6 C 56 % 0 lf 1012,0 hPa 0,0 l/m 2 min 0 min 613 W/m 14,6 km/h (3 Bft)
12.06.2015 09:50 22,9 C 20,6 C 57 % 0 lf 1012,0 hPa 0,0 l/m 2 min 0 min 616 W/m 14,6 km/h (3 Bft)
12.06.2015 09:52 23,1 C 20,6 C 55 % 0 lf 1012,1 hPa 0,0 l/m 2 min 0 min 620 W/m 18,8 km/h (3 Bft)
12.06.2015 09:54 23,2 C 21,1 C 56 % 0 lf 1012,1 hPa 0,0 l/m 2 min 0 min 626 W/m 18,8 km/h (3 Bft)
12.06.2015 09:56 23,3 C 21,7 C 55 % 0 lf 1012,0 hPa 0,0 l/m 2 min 0 min 630 W/m 20,9 km/h (4 Bft)
12.06.2015 09:58 23,4 C 22,2 C 55 % 0 lf 1012,0 hPa 0,0 l/m 2 min 0 min 636 W/m 16,7 km/h (3 Bft)
12.06.2015 10:00 23,5 C 22,8 C 54 % 0 lf 1011,9 hPa 0,0 l/m 2 min 0 min 641 W/m 18,8 km/h (3 Bft)
12.06.2015 10:02 23,6 C 24,4 C 53 % 0 lf 1011,8 hPa 0,0 l/m 2 min 0 min 646 W/m 16,7 km/h (3 Bft)
12.06.2015 10:04 23,7 C 25,6 C 55 % 0 lf 1011,8 hPa 0,0 l/m 2 min 0 min 648 W/m 18,8 km/h (3 Bft)
12.06.2015 10:06 23,8 C 25,6 C 55 % 0 lf 1011,8 hPa 0,0 l/m 2 min 0 min 654 W/m 12,6 km/h (3 Bft)
12.06.2015 10:08 23,9 C 26,1 C 54 % 0 lf 1011,7 hPa 0,0 l/m 2 min 0 min 658 W/m 20,9 km/h (4 Bft)
12.06.2015 10:10 24,0 C 25,6 C 53 % 0 lf 1011,6 hPa 0,0 l/m 2 min 0 min 663 W/m 16,7 km/h (3 Bft)
12.06.2015 10:12 24,1 C 26,1 C 53 % 0 lf 1011,6 hPa 0,0 l/m 2 min 0 min 666 W/m 18,8 km/h (3 Bft)
12.06.2015 10:14 24,2 C 26,1 C 53 % 0 lf 1011,6 hPa 0,0 l/m 2 min 0 min 669 W/m 10,5 km/h (2 Bft)
12.06.2015 10:16 24,3 C 26,1 C 53 % 0 lf 1011,6 hPa 0,0 l/m 2 min 0 min 674 W/m 14,6 km/h (3 Bft)
12.06.2015 10:18 24,3 C 26,7 C 53 % 0 lf 1011,6 hPa 0,0 l/m 2 min 0 min 677 W/m 14,6 km/h (3 Bft)
12.06.2015 10:20 24,4 C 27,2 C 52 % 0 lf 1011,5 hPa 0,0 l/m 2 min 0 min 680 W/m 10,5 km/h (2 Bft)
12.06.2015 10:22 24,5 C 27,2 C 54 % 0 lf 1011,5 hPa 0,0 l/m 2 min 0 min 684 W/m 8,4 km/h (2 Bft)
12.06.2015 10:24 24,6 C 26,7 C 53 % 0 lf 1011,5 hPa 0,0 l/m 2 min 0 min 688 W/m 14,6 km/h (3 Bft)
12.06.2015 10:26 24,7 C 26,7 C 53 % 0 lf 1011,4 hPa 0,0 l/m 2 min 0 min 694 W/m 8,4 km/h (2 Bft)
12.06.2015 10:28 24,8 C 26,7 C 53 % 0 lf 1011,4 hPa 0,0 l/m 2 min 0 min 695 W/m 14,6 km/h (3 Bft)
12.06.2015 10:30 24,9 C 27,2 C 51 % 0 lf 1011,4 hPa 0,0 l/m 2 min 0 min 700 W/m 14,6 km/h (3 Bft)
12.06.2015 10:32 25,0 C 26,7 C 51 % 0 lf 1011,4 hPa 0,0 l/m 2 min 0 min 704 W/m 14,6 km/h (3 Bft)
12.06.2015 10:34 25,1 C 26,7 C 52 % 0 lf 1011,4 hPa 0,0 l/m 2 min 0 min 705 W/m 16,7 km/h (3 Bft)
12.06.2015 10:36 25,2 C 26,7 C 51 % 0 lf 1011,4 hPa 0,0 l/m 2 min 0 min 709 W/m 16,7 km/h (3 Bft)
12.06.2015 10:38 25,2 C 26,1 C 51 % 0 lf 1011,4 hPa 0,0 l/m 2 min 0 min 714 W/m 12,6 km/h (3 Bft)
12.06.2015 10:40 25,3 C 26,1 C 50 % 0 lf 1011,4 hPa 0,0 l/m 2 min 0 min 720 W/m 16,7 km/h (3 Bft)
12.06.2015 10:42 25,4 C 26,1 C 50 % 0 lf 1011,4 hPa 0,0 l/m 2 min 0 min 722 W/m 14,6 km/h (3 Bft)
12.06.2015 10:44 25,4 C 26,1 C 51 % 0 lf 1011,4 hPa 0,0 l/m 2 min 0 min 723 W/m 14,6 km/h (3 Bft)
12.06.2015 10:46 25,5 C 26,1 C 50 % 0 lf 1011,4 hPa 0,0 l/m 2 min 0 min 732 W/m 14,6 km/h (3 Bft)
12.06.2015 10:48 25,7 C 26,1 C 51 % 0 lf 1011,4 hPa 0,0 l/m 2 min 0 min 733 W/m 6,3 km/h (2 Bft)
12.06.2015 10:50 25,8 C 26,7 C 51 % 0 lf 1011,4 hPa 0,0 l/m 2 min 0 min 737 W/m 10,5 km/h (2 Bft)
12.06.2015 10:52 25,9 C 26,7 C 50 % 0 lf 1011,4 hPa 0,0 l/m 2 min 0 min 738 W/m 23,0 km/h (4 Bft)
12.06.2015 10:54 25,9 C 26,7 C 49 % 0 lf 1011,4 hPa 0,0 l/m 2 min 0 min 749 W/m 18,8 km/h (3 Bft)
12.06.2015 10:56 26,0 C 26,7 C 48 % 0 lf 1011,3 hPa 0,0 l/m 2 min 0 min 747 W/m 18,8 km/h (3 Bft)
12.06.2015 10:58 26,1 C 26,7 C 48 % 0 lf 1011,3 hPa 0,0 l/m 2 min 0 min 745 W/m 16,7 km/h (3 Bft)
12.06.2015 11:00 26,1 C 27,8 C 48 % 0 lf 1011,3 hPa 0,0 l/m 2 min 0 min 751 W/m 16,7 km/h (3 Bft)
12.06.2015 11:02 26,2 C 28,9 C 47 % 0 lf 1011,3 hPa 0,0 l/m 2 min 0 min 755 W/m 20,9 km/h (4 Bft)
12.06.2015 11:04 26,2 C 29,4 C 47 % 0 lf 1011,3 hPa 0,0 l/m 2 min 0 min 761 W/m 18,8 km/h (3 Bft)
12.06.2015 11:06 26,2 C 28,9 C 46 % 0 lf 1011,2 hPa 0,0 l/m 2 min 0 min 765 W/m 20,9 km/h (4 Bft)
12.06.2015 11:08 26,3 C 28,3 C 47 % 0 lf 1011,2 hPa 0,0 l/m 2 min 0 min 767 W/m 18,8 km/h (3 Bft)
12.06.2015 11:10 26,3 C 29,4 C 47 % 0 lf 1011,2 hPa 0,0 l/m 2 min 0 min 771 W/m 16,7 km/h (3 Bft)
12.06.2015 11:12 26,4 C 29,4 C 46 % 0 lf 1011,2 hPa 0,0 l/m 2 min 0 min 774 W/m 16,7 km/h (3 Bft)
12.06.2015 11:14 26,4 C 29,4 C 46 % 0 lf 1011,2 hPa 0,0 l/m 2 min 0 min 774 W/m 25,1 km/h (4 Bft)
12.06.2015 11:16 26,4 C 28,3 C 44 % 0 lf 1011,2 hPa 0,0 l/m 2 min 0 min 774 W/m 20,9 km/h (4 Bft)
12.06.2015 11:18 26,4 C 28,3 C 45 % 0 lf 1011,2 hPa 0,0 l/m 2 min 0 min 771 W/m 20,9 km/h (4 Bft)
12.06.2015 11:20 26,4 C 28,3 C 46 % 0 lf 1011,2 hPa 0,0 l/m 2 min 0 min 775 W/m 20,9 km/h (4 Bft)
12.06.2015 11:22 26,4 C 28,9 C 47 % 0 lf 1011,1 hPa 0,0 l/m 2 min 0 min 778 W/m 20,9 km/h (4 Bft)
12.06.2015 11:24 26,4 C 28,9 C 44 % 0 lf 1011,1 hPa 0,0 l/m 2 min 0 min 781 W/m 20,9 km/h (4 Bft)
12.06.2015 11:26 26,5 C 28,9 C 45 % 0 lf 1011,1 hPa 0,0 l/m 2 min 0 min 784 W/m 25,1 km/h (4 Bft)
12.06.2015 11:28 26,5 C 28,9 C 45 % 0 lf 1011,1 hPa 0,0 l/m 2 min 0 min 790 W/m 25,1 km/h (4 Bft)
12.06.2015 11:30 26,6 C 28,3 C 43 % 0 lf 1011,1 hPa 0,0 l/m 2 min 0 min 790 W/m 23,0 km/h (4 Bft)
12.06.2015 11:32 26,6 C 28,3 C 44 % 0 lf 1011,1 hPa 0,0 l/m 2 min 0 min 794 W/m 20,9 km/h (4 Bft)
12.06.2015 11:34 26,6 C 27,2 C 44 % 0 lf 1011,1 hPa 0,0 l/m 2 min 0 min 799 W/m 25,1 km/h (4 Bft)
12.06.2015 11:36 26,7 C 26,7 C 46 % 0 lf 1011,1 hPa 0,0 l/m 2 min 0 min 797 W/m 23,0 km/h (4 Bft)
12.06.2015 11:38 26,7 C 26,7 C 45 % 0 lf 1011,1 hPa 0,0 l/m 2 min 0 min 802 W/m 18,8 km/h (3 Bft)
12.06.2015 11:40 26,8 C 27,2 C 46 % 0 lf 1011,1 hPa 0,0 l/m 2 min 0 min 803 W/m 20,9 km/h (4 Bft)
12.06.2015 11:42 26,9 C 28,3 C 45 % 0 lf 1011,1 hPa 0,0 l/m 2 min 0 min 800 W/m 14,6 km/h (3 Bft)
12.06.2015 11:44 26,9 C 28,9 C 44 % 0 lf 1011,1 hPa 0,0 l/m 2 min 0 min 806 W/m 18,8 km/h (3 Bft)
12.06.2015 11:46 26,9 C 29,4 C 44 % 0 lf 1011,0 hPa 0,0 l/m 2 min 0 min 811 W/m 18,8 km/h (3 Bft)
12.06.2015 11:48 26,9 C 30,6 C 44 % 0 lf 1011,0 hPa 0,0 l/m 2 min 0 min 816 W/m 20,9 km/h (4 Bft)
12.06.2015 11:50 27,0 C 30,6 C 43 % 0 lf 1011,0 hPa 0,0 l/m 2 min 0 min 818 W/m 20,9 km/h (4 Bft)
12.06.2015 11:52 27,1 C 30,6 C 43 % 0 lf 1011,0 hPa 0,0 l/m 2 min 0 min 815 W/m 18,8 km/h (3 Bft)
12.06.2015 11:54 27,1 C 31,1 C 44 % 0 lf 1010,9 hPa 0,0 l/m 2 min 0 min 822 W/m 14,6 km/h (3 Bft)
12.06.2015 11:56 27,2 C 30,6 C 45 % 0 lf 1010,9 hPa 0,0 l/m 2 min 0 min 823 W/m 10,5 km/h (2 Bft)
12.06.2015 11:58 27,2 C 31,7 C 43 % 0 lf 1010,9 hPa 0,0 l/m 2 min 0 min 825 W/m 18,8 km/h (3 Bft)
12.06.2015 12:00 27,3 C 31,7 C 43 % 0 lf 1010,9 hPa 0,0 l/m 2 min 0 min 833 W/m 16,7 km/h (3 Bft)
12.06.2015 12:02 27,4 C 32,2 C 44 % 0 lf 1010,9 hPa 0,0 l/m 2 min 0 min 835 W/m 18,8 km/h (3 Bft)
12.06.2015 12:06 27,6 C 32,2 C 43 % 0 lf 1010,9 hPa 0,0 l/m 2 min 0 min 842 W/m 23,0 km/h (4 Bft)
12.06.2015 12:08 27,7 C 32,2 C 43 % 0 lf 1011,0 hPa 0,0 l/m 2 min 0 min 857 W/m 20,9 km/h (4 Bft)
12.06.2015 12:10 27,8 C 31,7 C 43 % 0 lf 1011,0 hPa 0,0 l/m 2 min 0 min 851 W/m 23,0 km/h (4 Bft)
12.06.2015 12:12 27,9 C 31,7 C 42 % 0 lf 1011,0 hPa 0,0 l/m 2 min 0 min 880 W/m 20,9 km/h (4 Bft)
12.06.2015 12:14 28,0 C 31,7 C 43 % 0 lf 1011,0 hPa 0,0 l/m 2 min 0 min 888 W/m 8,4 km/h (2 Bft)
12.06.2015 12:16 28,1 C 31,1 C 42 % 0 lf 1011,0 hPa 0,0 l/m 2 min 0 min 773 W/m 14,6 km/h (3 Bft)
12.06.2015 12:18 28,2 C 31,7 C 42 % 0 lf 1010,9 hPa 0,0 l/m 2 min 0 min 662 W/m 12,6 km/h (3 Bft)
12.06.2015 12:20 28,3 C 31,1 C 43 % 0 lf 1010,9 hPa 0,0 l/m 0 min 0 min 338 W/m 14,6 km/h (3 Bft)
12.06.2015 12:22 28,3 C 31,1 C 42 % 0 lf 1010,8 hPa 0,0 l/m 2 min 0 min 610 W/m 8,4 km/h (2 Bft)
12.06.2015 12:24 28,4 C 31,1 C 43 % 0 lf 1010,9 hPa 0,0 l/m 2 min 0 min 839 W/m 12,6 km/h (3 Bft)
12.06.2015 12:26 28,4 C 31,1 C 41 % 0 lf 1010,8 hPa 0,0 l/m 2 min 0 min 852 W/m 18,8 km/h (3 Bft)
12.06.2015 12:28 28,5 C 30,6 C 43 % 0 lf 1010,8 hPa 0,0 l/m 2 min 0 min 841 W/m 18,8 km/h (3 Bft)
12.06.2015 12:30 28,6 C 30,6 C 43 % 0 lf 1010,8 hPa 0,0 l/m 2 min 0 min 770 W/m 14,6 km/h (3 Bft)
12.06.2015 12:32 28,6 C 31,1 C 44 % 0 lf 1010,8 hPa 0,0 l/m 2 min 0 min 851 W/m 16,7 km/h (3 Bft)
12.06.2015 12:34 28,6 C 31,1 C 42 % 0 lf 1010,7 hPa 0,0 l/m 2 min 0 min 867 W/m 12,6 km/h (3 Bft)
12.06.2015 12:36 28,7 C 31,1 C 43 % 0 lf 1010,7 hPa 0,0 l/m 2 min 0 min 858 W/m 18,8 km/h (3 Bft)
12.06.2015 12:38 28,8 C 31,1 C 43 % 0 lf 1010,7 hPa 0,0 l/m 2 min 0 min 857 W/m 14,6 km/h (3 Bft)
12.06.2015 12:40 28,8 C 30,6 C 42 % 0 lf 1010,7 hPa 0,0 l/m 2 min 0 min 866 W/m 18,8 km/h (3 Bft)
12.06.2015 12:42 28,9 C 30,6 C 43 % 0 lf 1010,6 hPa 0,0 l/m 2 min 0 min 869 W/m 8,4 km/h (2 Bft)
12.06.2015 12:44 29,0 C 30,6 C 41 % 0 lf 1010,6 hPa 0,0 l/m 2 min 0 min 866 W/m 10,5 km/h (2 Bft)
12.06.2015 12:46 29,1 C 30,0 C 44 % 0 lf 1010,6 hPa 0,0 l/m 2 min 0 min 866 W/m 12,6 km/h (3 Bft)
12.06.2015 12:48 29,2 C 29,4 C 42 % 0 lf 1010,6 hPa 0,0 l/m 2 min 0 min 866 W/m 8,4 km/h (2 Bft)
12.06.2015 12:50 29,3 C 29,4 C 43 % 0 lf 1010,6 hPa 0,0 l/m 2 min 0 min 865 W/m 14,6 km/h (3 Bft)
12.06.2015 12:52 29,4 C 29,4 C 41 % 0 lf 1010,6 hPa 0,0 l/m 2 min 0 min 867 W/m 16,7 km/h (3 Bft)
12.06.2015 12:54 29,4 C 28,9 C 40 % 0 lf 1010,6 hPa 0,0 l/m 2 min 0 min 867 W/m 16,7 km/h (3 Bft)
12.06.2015 12:56 29,5 C 28,3 C 42 % 0 lf 1010,6 hPa 0,0 l/m 2 min 0 min 867 W/m 18,8 km/h (3 Bft)
12.06.2015 12:58 29,6 C 28,3 C 42 % 0 lf 1010,6 hPa 0,0 l/m 2 min 0 min 865 W/m 14,6 km/h (3 Bft)
12.06.2015 13:00 29,6 C 28,9 C 41 % 0 lf 1010,6 hPa 0,0 l/m 2 min 0 min 866 W/m 16,7 km/h (3 Bft)
12.06.2015 13:02 29,7 C 28,3 C 40 % 0 lf 1010,6 hPa 0,0 l/m 2 min 0 min 871 W/m 18,8 km/h (3 Bft)
12.06.2015 13:04 29,7 C 28,9 C 41 % 0 lf 1010,6 hPa 0,0 l/m 2 min 0 min 871 W/m 14,6 km/h (3 Bft)
12.06.2015 13:06 29,8 C 30,0 C 40 % 0 lf 1010,6 hPa 0,0 l/m 2 min 0 min 875 W/m 16,7 km/h (3 Bft)
12.06.2015 13:08 29,8 C 30,6 C 41 % 0 lf 1010,6 hPa 0,0 l/m 2 min 0 min 880 W/m 12,6 km/h (3 Bft)
12.06.2015 13:10 29,8 C 31,7 C 41 % 0 lf 1010,5 hPa 0,0 l/m 2 min 0 min 880 W/m 8,4 km/h (2 Bft)
12.06.2015 13:12 29,9 C 32,2 C 40 % 0 lf 1010,5 hPa 0,0 l/m 2 min 0 min 878 W/m 16,7 km/h (3 Bft)
12.06.2015 13:14 30,0 C 32,8 C 40 % 0 lf 1010,4 hPa 0,0 l/m 2 min 0 min 873 W/m 6,3 km/h (2 Bft)
12.06.2015 13:16 30,1 C 32,8 C 39 % 0 lf 1010,4 hPa 0,0 l/m 2 min 0 min 875 W/m 6,3 km/h (2 Bft)
12.06.2015 13:18 30,2 C 32,2 C 42 % 0 lf 1010,3 hPa 0,0 l/m 2 min 0 min 869 W/m 16,7 km/h (3 Bft)
12.06.2015 13:20 30,3 C 31,1 C 40 % 0 lf 1010,4 hPa 0,0 l/m 2 min 0 min 868 W/m 12,6 km/h (3 Bft)
12.06.2015 13:22 30,3 C 30,0 C 42 % 0 lf 1010,3 hPa 0,0 l/m 2 min 0 min 875 W/m 6,3 km/h (2 Bft)
12.06.2015 13:24 30,4 C 28,9 C 40 % 0 lf 1010,3 hPa 0,0 l/m 2 min 0 min 868 W/m 14,6 km/h (3 Bft)
12.06.2015 13:26 30,3 C 28,9 C 39 % 0 lf 1010,3 hPa 0,0 l/m 2 min 0 min 870 W/m 12,6 km/h (3 Bft)
12.06.2015 13:28 30,3 C 27,8 C 39 % 0 lf 1010,2 hPa 0,0 l/m 2 min 0 min 868 W/m 8,4 km/h (2 Bft)
12.06.2015 13:30 30,3 C 28,3 C 39 % 0 lf 1010,2 hPa 0,0 l/m 2 min 0 min 878 W/m 8,4 km/h (2 Bft)
12.06.2015 13:32 30,3 C 28,3 C 40 % 0 lf 1010,2 hPa 0,0 l/m 2 min 0 min 878 W/m 16,7 km/h (3 Bft)
12.06.2015 13:34 30,3 C 28,3 C 39 % 0 lf 1010,2 hPa 0,0 l/m 2 min 0 min 873 W/m 12,6 km/h (3 Bft)
12.06.2015 13:36 30,3 C 28,3 C 39 % 0 lf 1010,2 hPa 0,0 l/m 2 min 0 min 860 W/m 18,8 km/h (3 Bft)
12.06.2015 13:38 30,3 C 27,2 C 39 % 0 lf 1010,2 hPa 0,0 l/m 2 min 0 min 872 W/m 8,4 km/h (2 Bft)
12.06.2015 13:40 30,3 C 27,2 C 39 % 0 lf 1010,1 hPa 0,0 l/m 2 min 0 min 867 W/m 8,4 km/h (2 Bft)
12.06.2015 13:42 30,4 C 27,8 C 40 % 0 lf 1010,1 hPa 0,0 l/m 2 min 0 min 874 W/m 20,9 km/h (4 Bft)
12.06.2015 13:44 30,3 C 27,8 C 42 % 0 lf 1010,1 hPa 0,0 l/m 2 min 0 min 875 W/m 12,6 km/h (3 Bft)
12.06.2015 13:46 30,4 C 27,8 C 42 % 0 lf 1010,0 hPa 0,0 l/m 2 min 0 min 874 W/m 8,4 km/h (2 Bft)
12.06.2015 13:48 30,4 C 27,8 C 40 % 0 lf 1010,0 hPa 0,0 l/m 2 min 0 min 866 W/m 4,2 km/h (1 Bft)
12.06.2015 13:50 30,4 C 27,8 C 41 % 0 lf 1009,9 hPa 0,0 l/m 2 min 0 min 857 W/m 10,5 km/h (2 Bft)
12.06.2015 13:52 30,6 C 28,3 C 41 % 0 lf 1009,9 hPa 0,0 l/m 2 min 0 min 864 W/m 20,9 km/h (4 Bft)
12.06.2015 13:54 30,6 C 28,3 C 41 % 0 lf 1009,7 hPa 0,0 l/m 2 min 0 min 874 W/m 14,6 km/h (3 Bft)
12.06.2015 13:56 30,6 C 28,3 C 40 % 0 lf 1009,7 hPa 0,0 l/m 2 min 0 min 871 W/m 10,5 km/h (2 Bft)
12.06.2015 13:58 30,7 C 28,3 C 41 % 0 lf 1009,6 hPa 0,0 l/m 2 min 0 min 880 W/m 14,6 km/h (3 Bft)
12.06.2015 14:00 30,8 C 28,3 C 41 % 0 lf 1009,6 hPa 0,0 l/m 2 min 0 min 886 W/m 14,6 km/h (3 Bft)
12.06.2015 14:02 30,8 C 28,3 C 40 % 0 lf 1009,6 hPa 0,0 l/m 2 min 0 min 891 W/m 18,8 km/h (3 Bft)
12.06.2015 14:04 30,8 C 28,3 C 42 % 0 lf 1009,5 hPa 0,0 l/m 2 min 0 min 906 W/m 16,7 km/h (3 Bft)
12.06.2015 14:06 30,9 C 28,3 C 41 % 0 lf 1009,6 hPa 0,0 l/m 2 min 0 min 886 W/m 12,6 km/h (3 Bft)
12.06.2015 14:08 30,8 C 28,3 C 40 % 0 lf 1009,6 hPa 0,0 l/m 2 min 0 min 681 W/m 16,7 km/h (3 Bft)
12.06.2015 14:10 30,8 C 28,3 C 40 % 0 lf 1009,6 hPa 0,0 l/m 2 min 0 min 665 W/m 6,3 km/h (2 Bft)
12.06.2015 14:12 30,9 C 27,8 C 40 % 0 lf 1009,5 hPa 0,0 l/m 2 min 0 min 778 W/m 16,7 km/h (3 Bft)
12.06.2015 14:14 30,8 C 28,3 C 40 % 0 lf 1009,6 hPa 0,0 l/m 2 min 0 min 886 W/m 18,8 km/h (3 Bft)
12.06.2015 14:16 30,8 C 28,3 C 42 % 0 lf 1009,5 hPa 0,0 l/m 2 min 0 min 859 W/m 18,8 km/h (3 Bft)
12.06.2015 14:18 30,8 C 28,3 C 41 % 0 lf 1009,5 hPa 0,0 l/m 2 min 0 min 855 W/m 14,6 km/h (3 Bft)
12.06.2015 14:20 30,8 C 28,3 C 42 % 0 lf 1009,4 hPa 0,0 l/m 2 min 0 min 858 W/m 14,6 km/h (3 Bft)
12.06.2015 14:22 30,9 C 28,9 C 40 % 0 lf 1009,5 hPa 0,0 l/m 2 min 0 min 854 W/m 14,6 km/h (3 Bft)
12.06.2015 14:24 30,9 C 28,3 C 39 % 0 lf 1009,4 hPa 0,0 l/m 2 min 0 min 855 W/m 8,4 km/h (2 Bft)
12.06.2015 14:26 30,9 C 28,3 C 41 % 0 lf 1009,4 hPa 0,0 l/m 2 min 0 min 854 W/m 10,5 km/h (2 Bft)
12.06.2015 14:28 31,0 C 28,3 C 41 % 0 lf 1009,4 hPa 0,0 l/m 2 min 0 min 853 W/m 10,5 km/h (2 Bft)
12.06.2015 14:30 31,1 C 28,9 C 41 % 0 lf 1009,3 hPa 0,0 l/m 2 min 0 min 850 W/m 18,8 km/h (3 Bft)
12.06.2015 14:32 31,1 C 28,9 C 42 % 0 lf 1009,3 hPa 0,0 l/m 2 min 0 min 850 W/m 16,7 km/h (3 Bft)
12.06.2015 14:34 31,1 C 28,9 C 41 % 0 lf 1009,3 hPa 0,0 l/m 2 min 0 min 845 W/m 14,6 km/h (3 Bft)
12.06.2015 14:36 31,2 C 28,9 C 42 % 0 lf 1009,3 hPa 0,0 l/m 2 min 0 min 848 W/m 10,5 km/h (2 Bft)
12.06.2015 14:38 31,2 C 28,9 C 42 % 0 lf 1009,3 hPa 0,0 l/m 2 min 0 min 847 W/m 12,6 km/h (3 Bft)
12.06.2015 14:40 31,3 C 28,9 C 42 % 0 lf 1009,3 hPa 0,0 l/m 2 min 0 min 847 W/m 14,6 km/h (3 Bft)
12.06.2015 14:42 31,4 C 28,9 C 43 % 0 lf 1009,3 hPa 0,0 l/m 2 min 0 min 845 W/m 14,6 km/h (3 Bft)
12.06.2015 14:44 31,5 C 28,9 C 42 % 0 lf 1009,3 hPa 0,0 l/m 2 min 0 min 844 W/m 16,7 km/h (3 Bft)
12.06.2015 14:46 31,6 C 28,9 C 40 % 0 lf 1009,2 hPa 0,0 l/m 2 min 0 min 842 W/m 14,6 km/h (3 Bft)
12.06.2015 14:48 31,6 C 28,9 C 41 % 0 lf 1009,2 hPa 0,0 l/m 2 min 0 min 836 W/m 12,6 km/h (3 Bft)
12.06.2015 14:50 31,7 C 28,9 C 41 % 0 lf 1009,2 hPa 0,0 l/m 2 min 0 min 832 W/m 20,9 km/h (4 Bft)
12.06.2015 14:52 31,7 C 28,9 C 41 % 0 lf 1009,2 hPa 0,0 l/m 2 min 0 min 831 W/m 8,4 km/h (2 Bft)
12.06.2015 14:54 31,7 C 28,9 C 42 % 0 lf 1009,2 hPa 0,0 l/m 2 min 0 min 839 W/m 8,4 km/h (2 Bft)
12.06.2015 14:56 31,8 C 29,4 C 42 % 0 lf 1009,1 hPa 0,0 l/m 2 min 0 min 828 W/m 16,7 km/h (3 Bft)
12.06.2015 14:58 31,8 C 29,4 C 40 % 0 lf 1009,1 hPa 0,0 l/m 2 min 0 min 824 W/m 14,6 km/h (3 Bft)
12.06.2015 15:00 31,8 C 29,4 C 40 % 0 lf 1009,0 hPa 0,0 l/m 2 min 0 min 824 W/m 14,6 km/h (3 Bft)
12.06.2015 15:02 31,9 C 29,4 C 39 % 0 lf 1009,0 hPa 0,0 l/m 2 min 0 min 824 W/m 12,6 km/h (3 Bft)
12.06.2015 15:04 31,8 C 28,9 C 39 % 0 lf 1009,0 hPa 0,0 l/m 2 min 0 min 824 W/m 14,6 km/h (3 Bft)
12.06.2015 15:06 31,8 C 28,9 C 40 % 0 lf 1008,9 hPa 0,0 l/m 2 min 0 min 817 W/m 10,5 km/h (2 Bft)
12.06.2015 15:08 31,8 C 28,9 C 41 % 0 lf 1009,0 hPa 0,0 l/m 2 min 0 min 816 W/m 20,9 km/h (4 Bft)
12.06.2015 15:10 31,8 C 29,4 C 40 % 0 lf 1009,0 hPa 0,0 l/m 2 min 0 min 813 W/m 20,9 km/h (4 Bft)
12.06.2015 15:12 31,8 C 29,4 C 39 % 0 lf 1009,0 hPa 0,0 l/m 2 min 0 min 807 W/m 27,2 km/h (4 Bft)
12.06.2015 15:14 31,7 C 28,3 C 39 % 0 lf 1008,9 hPa 0,0 l/m 2 min 0 min 806 W/m 20,9 km/h (4 Bft)
12.06.2015 15:16 31,7 C 28,9 C 40 % 0 lf 1008,9 hPa 0,0 l/m 2 min 0 min 804 W/m 20,9 km/h (4 Bft)
12.06.2015 15:18 31,6 C 29,4 C 40 % 0 lf 1008,9 hPa 0,0 l/m 2 min 0 min 808 W/m 23,0 km/h (4 Bft)
12.06.2015 15:20 31,6 C 29,4 C 40 % 0 lf 1008,8 hPa 0,0 l/m 2 min 0 min 806 W/m 23,0 km/h (4 Bft)
12.06.2015 15:22 31,6 C 29,4 C 41 % 0 lf 1008,9 hPa 0,0 l/m 2 min 0 min 804 W/m 20,9 km/h (4 Bft)
12.06.2015 15:24 31,6 C 29,4 C 40 % 0 lf 1008,9 hPa 0,0 l/m 2 min 0 min 797 W/m 16,7 km/h (3 Bft)
12.06.2015 15:26 31,7 C 29,4 C 42 % 0 lf 1008,8 hPa 0,0 l/m 2 min 0 min 783 W/m 10,5 km/h (2 Bft)
12.06.2015 15:28 31,7 C 30,0 C 41 % 0 lf 1008,9 hPa 0,0 l/m 2 min 0 min 782 W/m 20,9 km/h (4 Bft)
12.06.2015 15:30 31,7 C 29,4 C 40 % 0 lf 1008,8 hPa 0,0 l/m 2 min 0 min 785 W/m 18,8 km/h (3 Bft)
12.06.2015 15:32 31,7 C 29,4 C 40 % 0 lf 1008,7 hPa 0,0 l/m 2 min 0 min 789 W/m 14,6 km/h (3 Bft)
12.06.2015 15:34 31,7 C 29,4 C 42 % 0 lf 1008,7 hPa 0,0 l/m 2 min 0 min 788 W/m 16,7 km/h (3 Bft)
12.06.2015 15:36 31,8 C 30,0 C 43 % 0 lf 1008,7 hPa 0,0 l/m 2 min 0 min 792 W/m 10,5 km/h (2 Bft)
12.06.2015 15:38 31,9 C 30,0 C 43 % 0 lf 1008,6 hPa 0,0 l/m 2 min 0 min 806 W/m 18,8 km/h (3 Bft)
12.06.2015 15:40 31,9 C 30,0 C 43 % 0 lf 1008,7 hPa 0,0 l/m 2 min 0 min 811 W/m 14,6 km/h (3 Bft)
12.06.2015 15:42 31,9 C 29,4 C 42 % 0 lf 1008,6 hPa 0,0 l/m 2 min 0 min 807 W/m 10,5 km/h (2 Bft)
12.06.2015 15:44 31,9 C 29,4 C 43 % 0 lf 1008,7 hPa 0,0 l/m 2 min 0 min 785 W/m 10,5 km/h (2 Bft)
12.06.2015 15:46 32,0 C 29,4 C 42 % 0 lf 1008,7 hPa 0,0 l/m 2 min 0 min 775 W/m 6,3 km/h (2 Bft)
12.06.2015 15:48 32,0 C 28,9 C 42 % 0 lf 1008,7 hPa 0,0 l/m 2 min 0 min 775 W/m 14,6 km/h (3 Bft)
12.06.2015 15:50 32,0 C 28,9 C 42 % 0 lf 1008,7 hPa 0,0 l/m 2 min 0 min 761 W/m 16,7 km/h (3 Bft)
12.06.2015 15:52 31,9 C 29,4 C 41 % 0 lf 1008,6 hPa 0,0 l/m 2 min 0 min 547 W/m 18,8 km/h (3 Bft)
12.06.2015 15:54 31,9 C 28,9 C 41 % 0 lf 1008,7 hPa 0,0 l/m 0 min 0 min 324 W/m 18,8 km/h (3 Bft)
12.06.2015 15:56 31,8 C 28,9 C 41 % 0 lf 1008,7 hPa 0,0 l/m 0 min 0 min 320 W/m 16,7 km/h (3 Bft)
12.06.2015 15:58 31,8 C 28,9 C 42 % 0 lf 1008,7 hPa 0,0 l/m 2 min 0 min 467 W/m 10,5 km/h (2 Bft)
12.06.2015 16:00 31,8 C 28,9 C 42 % 0 lf 1008,8 hPa 0,0 l/m 2 min 0 min 480 W/m 8,4 km/h (2 Bft)
12.06.2015 16:04 31,7 C 30,6 C 42 % 0 lf 1008,7 hPa 0,0 l/m 2 min 0 min 648 W/m 14,6 km/h (3 Bft)
12.06.2015 16:06 31,8 C 31,1 C 43 % 0 lf 1008,7 hPa 0,0 l/m 2 min 0 min 771 W/m 12,6 km/h (3 Bft)
12.06.2015 16:08 31,8 C 31,1 C 42 % 0 lf 1008,7 hPa 0,0 l/m 2 min 0 min 512 W/m 12,6 km/h (3 Bft)
12.06.2015 16:10 31,8 C 31,1 C 43 % 0 lf 1008,8 hPa 0,0 l/m 2 min 0 min 488 W/m 10,5 km/h (2 Bft)
12.06.2015 16:12 31,8 C 30,0 C 42 % 0 lf 1008,7 hPa 0,0 l/m 2 min 0 min 399 W/m 8,4 km/h (2 Bft)
12.06.2015 16:14 31,7 C 29,4 C 42 % 0 lf 1008,6 hPa 0,0 l/m 2 min 0 min 382 W/m 6,3 km/h (2 Bft)
12.06.2015 16:16 31,7 C 30,0 C 44 % 0 lf 1008,6 hPa 0,0 l/m 2 min 0 min 370 W/m 6,3 km/h (2 Bft)
12.06.2015 16:18 31,7 C 30,0 C 44 % 0 lf 1008,6 hPa 0,0 l/m 0 min 0 min 336 W/m 10,5 km/h (2 Bft)
12.06.2015 16:20 31,6 C 30,0 C 44 % 0 lf 1008,5 hPa 0,0 l/m 0 min 0 min 338 W/m 12,6 km/h (3 Bft)
12.06.2015 16:22 31,6 C 30,0 C 44 % 0 lf 1008,5 hPa 0,0 l/m 2 min 0 min 360 W/m 8,4 km/h (2 Bft)
12.06.2015 16:24 31,6 C 31,1 C 44 % 0 lf 1008,4 hPa 0,0 l/m 2 min 0 min 737 W/m 10,5 km/h (2 Bft)
12.06.2015 16:26 31,6 C 32,2 C 45 % 0 lf 1008,5 hPa 0,0 l/m 2 min 0 min 797 W/m 10,5 km/h (2 Bft)
12.06.2015 16:28 31,6 C 32,2 C 44 % 0 lf 1008,4 hPa 0,0 l/m 2 min 0 min 831 W/m 16,7 km/h (3 Bft)
12.06.2015 16:30 31,6 C 32,2 C 44 % 0 lf 1008,4 hPa 0,0 l/m 2 min 0 min 799 W/m 10,5 km/h (2 Bft)
12.06.2015 16:32 31,7 C 32,2 C 44 % 0 lf 1008,5 hPa 0,0 l/m 2 min 0 min 772 W/m 14,6 km/h (3 Bft)
12.06.2015 16:34 31,7 C 32,2 C 45 % 0 lf 1008,4 hPa 0,0 l/m 2 min 0 min 699 W/m 6,3 km/h (2 Bft)
12.06.2015 16:36 31,7 C 32,2 C 44 % 0 lf 1008,4 hPa 0,0 l/m 2 min 0 min 679 W/m 16,7 km/h (3 Bft)
12.06.2015 16:38 31,8 C 32,2 C 45 % 0 lf 1008,5 hPa 0,0 l/m 2 min 0 min 679 W/m 14,6 km/h (3 Bft)
12.06.2015 16:40 31,8 C 31,7 C 44 % 0 lf 1008,4 hPa 0,0 l/m 2 min 0 min 681 W/m 12,6 km/h (3 Bft)
12.06.2015 16:42 31,8 C 31,1 C 45 % 0 lf 1008,4 hPa 0,0 l/m 2 min 0 min 684 W/m 16,7 km/h (3 Bft)
12.06.2015 16:44 31,8 C 30,6 C 44 % 0 lf 1008,4 hPa 0,0 l/m 2 min 0 min 702 W/m 10,5 km/h (2 Bft)
12.06.2015 16:46 31,8 C 30,6 C 45 % 0 lf 1008,4 hPa 0,0 l/m 2 min 0 min 683 W/m 14,6 km/h (3 Bft)
12.06.2015 16:48 31,8 C 31,1 C 45 % 0 lf 1008,3 hPa 0,0 l/m 2 min 0 min 692 W/m 10,5 km/h (2 Bft)
12.06.2015 16:50 31,8 C 30,6 C 46 % 0 lf 1008,3 hPa 0,0 l/m 2 min 0 min 638 W/m 14,6 km/h (3 Bft)
12.06.2015 16:52 31,8 C 30,0 C 45 % 0 lf 1008,2 hPa 0,0 l/m 2 min 0 min 608 W/m 16,7 km/h (3 Bft)
12.06.2015 16:54 31,8 C 30,0 C 46 % 0 lf 1008,2 hPa 0,0 l/m 2 min 0 min 369 W/m 16,7 km/h (3 Bft)
12.06.2015 16:56 31,7 C 29,4 C 45 % 0 lf 1008,2 hPa 0,0 l/m 2 min 0 min 357 W/m 10,5 km/h (2 Bft)
12.06.2015 16:58 31,7 C 28,9 C 45 % 0 lf 1008,2 hPa 0,0 l/m 2 min 0 min 375 W/m 20,9 km/h (4 Bft)
12.06.2015 17:00 31,6 C 28,9 C 45 % 0 lf 1008,1 hPa 0,0 l/m 2 min 0 min 460 W/m 10,5 km/h (2 Bft)
12.06.2015 17:02 31,6 C 29,4 C 45 % 0 lf 1008,1 hPa 0,0 l/m 2 min 0 min 564 W/m 10,5 km/h (2 Bft)
12.06.2015 17:04 31,5 C 29,4 C 46 % 0 lf 1008,1 hPa 0,0 l/m 2 min 0 min 642 W/m 8,4 km/h (2 Bft)
12.06.2015 17:08 31,6 C 29,4 C 45 % 0 lf 1008,0 hPa 0,0 l/m 2 min 0 min 646 W/m 10,5 km/h (2 Bft)
12.06.2015 17:10 31,6 C 30,0 C 46 % 0 lf 1007,9 hPa 0,0 l/m 2 min 0 min 651 W/m 14,6 km/h (3 Bft)
12.06.2015 17:12 31,7 C 30,0 C 47 % 0 lf 1008,0 hPa 0,0 l/m 2 min 0 min 661 W/m 16,7 km/h (3 Bft)
12.06.2015 17:14 31,7 C 30,0 C 45 % 0 lf 1007,9 hPa 0,0 l/m 2 min 0 min 683 W/m 20,9 km/h (4 Bft)
12.06.2015 17:16 31,8 C 30,0 C 47 % 0 lf 1008,0 hPa 0,0 l/m 2 min 0 min 701 W/m 12,6 km/h (3 Bft)
12.06.2015 17:18 31,8 C 30,0 C 46 % 0 lf 1008,0 hPa 0,0 l/m 2 min 0 min 683 W/m 10,5 km/h (2 Bft)
12.06.2015 17:20 31,9 C 30,0 C 46 % 0 lf 1008,0 hPa 0,0 l/m 2 min 0 min 615 W/m 16,7 km/h (3 Bft)
12.06.2015 17:22 32,0 C 30,0 C 46 % 0 lf 1008,0 hPa 0,0 l/m 2 min 0 min 563 W/m 12,6 km/h (3 Bft)
12.06.2015 17:24 32,1 C 29,4 C 46 % 0 lf 1008,0 hPa 0,0 l/m 2 min 0 min 637 W/m 18,8 km/h (3 Bft)
12.06.2015 17:28 32,1 C 29,4 C 46 % 0 lf 1008,0 hPa 0,0 l/m 2 min 0 min 618 W/m 14,6 km/h (3 Bft)
12.06.2015 17:30 32,1 C 29,4 C 46 % 0 lf 1007,9 hPa 0,0 l/m 2 min 0 min 639 W/m 10,5 km/h (2 Bft)
12.06.2015 17:32 32,1 C 29,4 C 46 % 0 lf 1007,9 hPa 0,0 l/m 2 min 0 min 660 W/m 23,0 km/h (4 Bft)
12.06.2015 17:34 32,2 C 30,0 C 47 % 0 lf 1007,9 hPa 0,0 l/m 2 min 0 min 628 W/m 27,2 km/h (4 Bft)
12.06.2015 17:36 32,2 C 30,0 C 47 % 0 lf 1007,9 hPa 0,0 l/m 2 min 0 min 576 W/m 25,1 km/h (4 Bft)
12.06.2015 17:38 32,2 C 30,0 C 46 % 0 lf 1007,9 hPa 0,0 l/m 2 min 0 min 566 W/m 16,7 km/h (3 Bft)
12.06.2015 17:40 32,2 C 30,0 C 47 % 0 lf 1007,9 hPa 0,0 l/m 2 min 0 min 515 W/m 14,6 km/h (3 Bft)
12.06.2015 17:44 32,1 C 29,4 C 47 % 0 lf 1007,7 hPa 0,0 l/m 2 min 0 min 428 W/m 10,5 km/h (2 Bft)
12.06.2015 17:48 32,1 C 28,9 C 47 % 0 lf 1007,6 hPa 0,0 l/m 2 min 0 min 411 W/m 16,7 km/h (3 Bft)
12.06.2015 17:54 31,8 C 28,3 C 47 % 0 lf 1007,6 hPa 0,0 l/m 0 min 0 min 252 W/m 20,9 km/h (4 Bft)
12.06.2015 18:00 31,6 C 27,8 C 48 % 0 lf 1007,8 hPa 0,0 l/m 0 min 0 min 126 W/m 10,5 km/h (2 Bft)
12.06.2015 18:01 31,6 C 27,8 C 48 % 0 lf 1007,8 hPa 0,0 l/m 0 min 0 min 108 W/m 20,9 km/h (4 Bft)
12.06.2015 18:02 31,5 C 27,8 C 48 % 0 lf 1007,8 hPa 0,0 l/m 0 min 0 min 100 W/m 16,7 km/h (3 Bft)
12.06.2015 18:04 31,3 C 27,2 C 50 % 0 lf 1007,9 hPa 0,0 l/m 0 min 0 min 91 W/m 18,8 km/h (3 Bft)
12.06.2015 18:05 31,3 C 27,2 C 50 % 0 lf 1007,9 hPa 0,0 l/m 0 min 0 min 88 W/m 14,6 km/h (3 Bft)
12.06.2015 18:06 31,2 C 26,7 C 51 % 0 lf 1007,9 hPa 0,0 l/m 0 min 0 min 86 W/m 23,0 km/h (4 Bft)
12.06.2015 18:07 31,0 C 26,7 C 52 % 0 lf 1008,0 hPa 0,0 l/m 0 min 0 min 81 W/m 18,8 km/h (3 Bft)
12.06.2015 18:08 30,8 C 26,7 C 52 % 0 lf 1008,0 hPa 0,0 l/m 0 min 0 min 77 W/m 18,8 km/h (3 Bft)
12.06.2015 18:09 30,7 C 26,1 C 52 % 0 lf 1008,0 hPa 0,0 l/m 0 min 0 min 76 W/m 14,6 km/h (3 Bft)
12.06.2015 18:10 30,7 C 26,1 C 52 % 0 lf 1008,0 hPa 0,0 l/m 0 min 0 min 74 W/m 25,1 km/h (4 Bft)
12.06.2015 18:11 30,5 C 26,1 C 52 % 0 lf 1008,0 hPa 0,0 l/m 0 min 0 min 74 W/m 27,2 km/h (4 Bft)
12.06.2015 18:12 30,3 C 25,6 C 52 % 0 lf 1007,9 hPa 0,0 l/m 0 min 0 min 76 W/m 23,0 km/h (4 Bft)
12.06.2015 18:13 30,1 C 25,6 C 53 % 0 lf 1007,9 hPa 0,0 l/m 0 min 0 min 76 W/m 16,7 km/h (3 Bft)
12.06.2015 18:14 29,9 C 25,6 C 53 % 0 lf 1007,8 hPa 0,0 l/m 0 min 0 min 74 W/m 18,8 km/h (3 Bft)
12.06.2015 18:15 29,8 C 25,6 C 53 % 0 lf 1007,8 hPa 0,0 l/m 0 min 0 min 72 W/m 20,9 km/h (4 Bft)
12.06.2015 18:16 29,7 C 25,6 C 53 % 0 lf 1007,8 hPa 0,0 l/m 0 min 0 min 69 W/m 23,0 km/h (4 Bft)
12.06.2015 18:17 29,6 C 25,6 C 54 % 0 lf 1007,8 hPa 0,0 l/m 0 min 0 min 67 W/m 16,7 km/h (3 Bft)
12.06.2015 18:18 29,5 C 25,6 C 54 % 0 lf 1007,8 hPa 0,0 l/m 0 min 0 min 63 W/m 14,6 km/h (3 Bft)
12.06.2015 18:19 29,4 C 25,6 C 54 % 0 lf 1007,7 hPa 0,0 l/m 0 min 0 min 58 W/m 14,6 km/h (3 Bft)
12.06.2015 18:20 29,3 C 25,6 C 54 % 0 lf 1007,8 hPa 0,0 l/m 0 min 0 min 56 W/m 8,4 km/h (2 Bft)
12.06.2015 18:21 29,2 C 25,6 C 54 % 0 lf 1007,7 hPa 0,0 l/m 0 min 0 min 53 W/m 10,5 km/h (2 Bft)
12.06.2015 18:22 29,2 C 25,0 C 55 % 0 lf 1007,7 hPa 0,0 l/m 0 min 0 min 51 W/m 14,6 km/h (3 Bft)
12.06.2015 18:23 29,1 C 25,0 C 55 % 0 lf 1007,7 hPa 0,0 l/m 0 min 0 min 49 W/m 10,5 km/h (2 Bft)
12.06.2015 18:24 29,1 C 25,0 C 55 % 0 lf 1007,7 hPa 0,0 l/m 0 min 0 min 47 W/m 16,7 km/h (3 Bft)
12.06.2015 18:25 28,9 C 25,0 C 55 % 0 lf 1007,7 hPa 0,0 l/m 0 min 0 min 44 W/m 14,6 km/h (3 Bft)
12.06.2015 18:26 28,9 C 25,0 C 55 % 0 lf 1007,7 hPa 0,0 l/m 0 min 0 min 42 W/m 14,6 km/h (3 Bft)
12.06.2015 18:30 28,6 C 24,4 C 55 % 0 lf 1007,9 hPa 0,0 l/m 0 min 0 min 35 W/m 14,6 km/h (3 Bft)
12.06.2015 18:31 28,5 C 24,4 C 55 % 0 lf 1007,9 hPa 0,0 l/m 0 min 0 min 32 W/m 16,7 km/h (3 Bft)
12.06.2015 18:32 28,4 C 24,4 C 55 % 0 lf 1007,9 hPa 0,0 l/m 0 min 0 min 30 W/m 18,8 km/h (3 Bft)
12.06.2015 18:33 28,3 C 24,4 C 55 % 0 lf 1008,0 hPa 0,0 l/m 0 min 0 min 28 W/m 16,7 km/h (3 Bft)
12.06.2015 18:34 28,3 C 24,4 C 56 % 0 lf 1008,0 hPa 0,0 l/m 0 min 0 min 28 W/m 23,0 km/h (4 Bft)
12.06.2015 18:35 28,2 C 24,4 C 56 % 0 lf 1008,0 hPa 0,0 l/m 0 min 0 min 26 W/m 25,1 km/h (4 Bft)
12.06.2015 18:36 28,1 C 24,4 C 57 % 0 lf 1008,0 hPa 0,0 l/m 0 min 0 min 26 W/m 25,1 km/h (4 Bft)
12.06.2015 18:37 28,0 C 24,4 C 58 % 0 lf 1008,0 hPa 0,0 l/m 0 min 0 min 25 W/m 25,1 km/h (4 Bft)
12.06.2015 18:38 27,9 C 24,4 C 59 % 0 lf 1008,0 hPa 0,0 l/m 0 min 0 min 25 W/m 23,0 km/h (4 Bft)
12.06.2015 18:39 27,8 C 24,4 C 60 % 0 lf 1008,0 hPa 0,0 l/m 0 min 0 min 25 W/m 16,7 km/h (3 Bft)
12.06.2015 18:40 27,7 C 24,4 C 60 % 0 lf 1007,9 hPa 0,0 l/m 0 min 0 min 25 W/m 16,7 km/h (3 Bft)
12.06.2015 18:41 27,6 C 24,4 C 61 % 0 lf 1008,0 hPa 0,0 l/m 0 min 0 min 25 W/m 23,0 km/h (4 Bft)
12.06.2015 18:42 27,5 C 23,9 C 61 % 0 lf 1008,0 hPa 0,0 l/m 0 min 0 min 26 W/m 29,3 km/h (5 Bft)
12.06.2015 18:43 27,3 C 23,3 C 61 % 0 lf 1008,0 hPa 0,0 l/m 0 min 0 min 26 W/m 27,2 km/h (4 Bft)
12.06.2015 18:44 27,2 C 23,3 C 61 % 0 lf 1008,0 hPa 0,0 l/m 0 min 1 min 26 W/m 29,3 km/h (5 Bft)
12.06.2015 18:45 27,2 C 23,3 C 62 % 0 lf 1008,0 hPa 0,0 l/m 0 min 1 min 28 W/m 20,9 km/h (4 Bft)
12.06.2015 18:46 27,1 C 23,9 C 62 % 1 lf 1008,0 hPa 0,0 l/m 0 min 1 min 28 W/m 14,6 km/h (3 Bft)
12.06.2015 18:47 27,0 C 23,3 C 62 % 15 lf 1007,9 hPa 0,0 l/m 0 min 1 min 28 W/m 23,0 km/h (4 Bft)
12.06.2015 18:48 26,9 C 23,3 C 62 % 15 lf 1008,0 hPa 0,0 l/m 0 min 1 min 31 W/m 16,7 km/h (3 Bft)
12.06.2015 18:49 26,8 C 23,3 C 63 % 15 lf 1008,0 hPa 0,0 l/m 0 min 1 min 32 W/m 18,8 km/h (3 Bft)
12.06.2015 18:50 26,7 C 22,8 C 63 % 15 lf 1008,0 hPa 0,0 l/m 0 min 1 min 33 W/m 10,5 km/h (2 Bft)
12.06.2015 18:51 26,6 C 22,2 C 64 % 15 lf 1008,0 hPa 0,0 l/m 0 min 1 min 35 W/m 23,0 km/h (4 Bft)
12.06.2015 18:52 26,5 C 21,7 C 65 % 15 lf 1008,0 hPa 0,0 l/m 0 min 1 min 37 W/m 27,2 km/h (4 Bft)
12.06.2015 18:53 26,4 C 20,6 C 65 % 15 lf 1008,0 hPa 0,0 l/m 0 min 1 min 39 W/m 18,8 km/h (3 Bft)
12.06.2015 18:54 26,3 C 20,6 C 65 % 15 lf 1007,9 hPa 0,0 l/m 0 min 1 min 40 W/m 18,8 km/h (3 Bft)
12.06.2015 18:55 26,2 C 20,0 C 65 % 15 lf 1007,9 hPa 0,0 l/m 0 min 1 min 46 W/m 12,6 km/h (3 Bft)
12.06.2015 18:56 26,2 C 20,0 C 66 % 15 lf 1007,9 hPa 0,0 l/m 0 min 1 min 47 W/m 12,6 km/h (3 Bft)
12.06.2015 18:57 26,1 C 20,0 C 67 % 15 lf 1008,0 hPa 0,0 l/m 0 min 1 min 49 W/m 12,6 km/h (3 Bft)
12.06.2015 18:58 26,0 C 19,4 C 67 % 15 lf 1008,0 hPa 0,0 l/m 0 min 1 min 53 W/m 12,6 km/h (3 Bft)
12.06.2015 18:59 25,9 C 19,4 C 68 % 15 lf 1008,0 hPa 0,0 l/m 0 min 1 min 55 W/m 16,7 km/h (3 Bft)
12.06.2015 19:00 25,9 C 19,4 C 68 % 15 lf 1008,0 hPa 0,0 l/m 0 min 1 min 60 W/m 14,6 km/h (3 Bft)
12.06.2015 19:01 25,8 C 19,4 C 68 % 15 lf 1008,0 hPa 0,0 l/m 0 min 1 min 62 W/m 10,5 km/h (2 Bft)
12.06.2015 19:02 25,7 C 19,4 C 69 % 15 lf 1008,0 hPa 0,0 l/m 0 min 1 min 63 W/m 10,5 km/h (2 Bft)
12.06.2015 19:03 25,7 C 19,4 C 69 % 15 lf 1008,0 hPa 0,0 l/m 0 min 1 min 67 W/m 8,4 km/h (2 Bft)
12.06.2015 19:04 25,6 C 19,4 C 69 % 15 lf 1008,0 hPa 0,0 l/m 0 min 1 min 69 W/m 12,6 km/h (3 Bft)
12.06.2015 19:05 25,6 C 19,4 C 70 % 15 lf 1008,0 hPa 0,0 l/m 0 min 0 min 71 W/m 10,5 km/h (2 Bft)
12.06.2015 19:06 25,4 C 19,4 C 70 % 15 lf 1008,0 hPa 0,0 l/m 0 min 0 min 74 W/m 6,3 km/h (2 Bft)
12.06.2015 19:07 25,4 C 19,4 C 71 % 15 lf 1008,1 hPa 0,0 l/m 0 min 0 min 76 W/m 8,4 km/h (2 Bft)
12.06.2015 19:08 25,3 C 19,4 C 71 % 15 lf 1008,0 hPa 0,0 l/m 0 min 0 min 76 W/m 10,5 km/h (2 Bft)
12.06.2015 19:09 25,3 C 19,4 C 72 % 15 lf 1008,1 hPa 0,0 l/m 0 min 0 min 77 W/m 8,4 km/h (2 Bft)
12.06.2015 19:10 25,2 C 19,4 C 72 % 15 lf 1008,1 hPa 0,0 l/m 0 min 0 min 77 W/m 8,4 km/h (2 Bft)
12.06.2015 19:11 25,1 C 19,4 C 72 % 15 lf 1008,1 hPa 0,0 l/m 0 min 0 min 78 W/m 10,5 km/h (2 Bft)
12.06.2015 19:12 25,1 C 19,4 C 72 % 15 lf 1008,1 hPa 0,0 l/m 0 min 0 min 79 W/m 8,4 km/h (2 Bft)
12.06.2015 19:13 25,0 C 19,4 C 72 % 15 lf 1008,1 hPa 0,0 l/m 0 min 0 min 77 W/m 4,2 km/h (1 Bft)
12.06.2015 19:14 24,9 C 20,0 C 72 % 15 lf 1008,1 hPa 0,0 l/m 0 min 0 min 77 W/m 6,3 km/h (2 Bft)
12.06.2015 19:15 24,8 C 20,0 C 72 % 15 lf 1008,2 hPa 0,0 l/m 0 min 0 min 77 W/m 6,3 km/h (2 Bft)
12.06.2015 19:16 24,8 C 20,0 C 72 % 15 lf 1008,2 hPa 0,0 l/m 0 min 0 min 76 W/m 6,3 km/h (2 Bft)
12.06.2015 19:17 24,7 C 20,0 C 72 % 15 lf 1008,1 hPa 0,0 l/m 0 min 0 min 73 W/m 8,4 km/h (2 Bft)
12.06.2015 19:18 24,7 C 20,0 C 72 % 15 lf 1008,1 hPa 0,0 l/m 0 min 0 min 70 W/m 8,4 km/h (2 Bft)
12.06.2015 19:19 24,6 C 20,0 C 72 % 15 lf 1008,2 hPa 0,0 l/m 0 min 0 min 69 W/m 6,3 km/h (2 Bft)
12.06.2015 19:20 24,6 C 20,0 C 72 % 13 lf 1008,2 hPa 0,0 l/m 0 min 0 min 65 W/m 8,4 km/h (2 Bft)
12.06.2015 19:21 24,5 C 20,0 C 72 % 0 lf 1008,2 hPa 0,0 l/m 0 min 0 min 63 W/m 8,4 km/h (2 Bft)
12.06.2015 19:22 24,4 C 20,0 C 72 % 0 lf 1008,2 hPa 0,0 l/m 0 min 0 min 60 W/m 2,1 km/h (1 Bft)
12.06.2015 19:23 24,4 C 20,0 C 72 % 0 lf 1008,2 hPa 0,0 l/m 0 min 0 min 55 W/m 4,2 km/h (1 Bft)
12.06.2015 19:24 24,4 C 20,0 C 72 % 0 lf 1008,2 hPa 0,0 l/m 0 min 0 min 49 W/m 4,2 km/h (1 Bft)
12.06.2015 19:25 24,3 C 20,0 C 72 % 0 lf 1008,2 hPa 0,0 l/m 0 min 0 min 47 W/m 4,2 km/h (1 Bft)
12.06.2015 19:26 24,3 C 20,0 C 72 % 0 lf 1008,3 hPa 0,0 l/m 0 min 0 min 46 W/m 6,3 km/h (2 Bft)
12.06.2015 19:27 24,3 C 20,0 C 72 % 0 lf 1008,3 hPa 0,0 l/m 0 min 0 min 44 W/m 6,3 km/h (2 Bft)
12.06.2015 19:28 24,2 C 20,0 C 72 % 0 lf 1008,2 hPa 0,0 l/m 0 min 0 min 42 W/m 4,2 km/h (1 Bft)
12.06.2015 19:29 24,2 C 20,0 C 72 % 0 lf 1008,2 hPa 0,0 l/m 0 min 0 min 40 W/m 4,2 km/h (1 Bft)
12.06.2015 19:30 24,2 C 20,0 C 72 % 0 lf 1008,2 hPa 0,0 l/m 0 min 0 min 40 W/m 4,2 km/h (1 Bft)
12.06.2015 19:31 24,2 C 20,0 C 72 % 0 lf 1008,2 hPa 0,0 l/m 0 min 0 min 39 W/m 4,2 km/h (1 Bft)
12.06.2015 19:32 24,1 C 20,0 C 72 % 0 lf 1008,2 hPa 0,0 l/m 0 min 0 min 39 W/m 6,3 km/h (2 Bft)
12.06.2015 19:33 24,1 C 20,6 C 72 % 0 lf 1008,2 hPa 0,0 l/m 0 min 0 min 37 W/m 6,3 km/h (2 Bft)
12.06.2015 19:34 24,0 C 20,6 C 72 % 0 lf 1008,1 hPa 0,0 l/m 0 min 0 min 37 W/m 6,3 km/h (2 Bft)
12.06.2015 19:35 24,0 C 20,6 C 72 % 0 lf 1008,1 hPa 0,0 l/m 0 min 0 min 35 W/m 4,2 km/h (1 Bft)
12.06.2015 19:36 23,9 C 20,6 C 72 % 0 lf 1008,1 hPa 0,0 l/m 0 min 0 min 35 W/m 2,1 km/h (1 Bft)
12.06.2015 19:37 23,9 C 20,6 C 72 % 0 lf 1008,1 hPa 0,0 l/m 0 min 0 min 35 W/m 4,2 km/h (1 Bft)
12.06.2015 19:38 23,9 C 20,6 C 73 % 0 lf 1008,2 hPa 0,0 l/m 0 min 0 min 35 W/m 4,2 km/h (1 Bft)
12.06.2015 19:39 23,9 C 20,6 C 73 % 0 lf 1008,2 hPa 0,0 l/m 0 min 0 min 35 W/m 4,2 km/h (1 Bft)
12.06.2015 19:40 23,8 C 20,6 C 73 % 0 lf 1008,2 hPa 0,0 l/m 0 min 0 min 35 W/m 2,1 km/h (1 Bft)
12.06.2015 19:41 23,8 C 20,6 C 73 % 0 lf 1008,1 hPa 0,0 l/m 0 min 0 min 35 W/m 6,3 km/h (2 Bft)
12.06.2015 19:42 23,8 C 21,1 C 73 % 0 lf 1008,1 hPa 0,0 l/m 0 min 0 min 35 W/m 6,3 km/h (2 Bft)
12.06.2015 19:43 23,7 C 21,1 C 73 % 0 lf 1008,1 hPa 0,0 l/m 0 min 0 min 35 W/m 4,2 km/h (1 Bft)
12.06.2015 19:44 23,7 C 21,1 C 72 % 0 lf 1008,1 hPa 0,0 l/m 0 min 0 min 35 W/m 0,0 km/h (0 Bft)
12.06.2015 19:45 23,7 C 21,1 C 72 % 0 lf 1008,0 hPa 0,0 l/m 0 min 0 min 33 W/m 2,1 km/h (1 Bft)
12.06.2015 19:46 23,7 C 20,6 C 72 % 0 lf 1008,0 hPa 0,0 l/m 0 min 0 min 33 W/m 2,1 km/h (1 Bft)
12.06.2015 19:47 23,7 C 20,6 C 72 % 0 lf 1008,0 hPa 0,0 l/m 0 min 0 min 32 W/m 4,2 km/h (1 Bft)
12.06.2015 19:48 23,6 C 20,6 C 72 % 0 lf 1008,0 hPa 0,0 l/m 0 min 0 min 32 W/m 4,2 km/h (1 Bft)
12.06.2015 19:49 23,6 C 20,6 C 72 % 0 lf 1008,1 hPa 0,0 l/m 0 min 0 min 30 W/m 6,3 km/h (2 Bft)
12.06.2015 19:50 23,6 C 20,6 C 72 % 0 lf 1008,1 hPa 0,0 l/m 0 min 0 min 30 W/m 6,3 km/h (2 Bft)
12.06.2015 19:51 23,6 C 20,6 C 73 % 0 lf 1008,1 hPa 0,0 l/m 0 min 0 min 28 W/m 6,3 km/h (2 Bft)
12.06.2015 19:52 23,6 C 20,6 C 73 % 0 lf 1008,1 hPa 0,0 l/m 0 min 0 min 26 W/m 6,3 km/h (2 Bft)
12.06.2015 19:53 23,6 C 20,6 C 73 % 0 lf 1008,1 hPa 0,0 l/m 0 min 0 min 25 W/m 8,4 km/h (2 Bft)
12.06.2015 19:54 23,6 C 21,1 C 73 % 0 lf 1008,1 hPa 0,0 l/m 0 min 0 min 23 W/m 8,4 km/h (2 Bft)
12.06.2015 19:55 23,5 C 21,1 C 74 % 0 lf 1008,1 hPa 0,0 l/m 0 min 0 min 23 W/m 6,3 km/h (2 Bft)
12.06.2015 19:56 23,5 C 21,1 C 74 % 0 lf 1008,1 hPa 0,0 l/m 0 min 0 min 23 W/m 6,3 km/h (2 Bft)
12.06.2015 19:57 23,5 C 21,1 C 75 % 0 lf 1008,1 hPa 0,0 l/m 0 min 0 min 21 W/m 8,4 km/h (2 Bft)
12.06.2015 19:58 23,5 C 21,1 C 75 % 0 lf 1008,1 hPa 0,0 l/m 0 min 0 min 20 W/m 8,4 km/h (2 Bft)
12.06.2015 19:59 23,4 C 21,1 C 75 % 0 lf 1008,1 hPa 0,0 l/m 0 min 0 min 19 W/m 8,4 km/h (2 Bft)
12.06.2015 20:00 23,4 C 21,1 C 75 % 0 lf 1008,1 hPa 0,0 l/m 0 min 0 min 19 W/m 6,3 km/h (2 Bft)
12.06.2015 20:01 23,4 C 21,1 C 76 % 0 lf 1008,1 hPa 0,0 l/m 0 min 0 min 18 W/m 8,4 km/h (2 Bft)
12.06.2015 20:02 23,4 C 21,1 C 76 % 0 lf 1008,1 hPa 0,0 l/m 0 min 0 min 18 W/m 8,4 km/h (2 Bft)
12.06.2015 20:03 23,4 C 21,1 C 76 % 0 lf 1008,0 hPa 0,0 l/m 0 min 0 min 16 W/m 6,3 km/h (2 Bft)
12.06.2015 20:04 23,4 C 21,1 C 76 % 0 lf 1008,0 hPa 0,0 l/m 0 min 0 min 16 W/m 4,2 km/h (1 Bft)
12.06.2015 20:05 23,4 C 21,1 C 76 % 0 lf 1008,0 hPa 0,0 l/m 0 min 0 min 16 W/m 2,1 km/h (1 Bft)
12.06.2015 20:06 23,4 C 21,1 C 76 % 0 lf 1008,0 hPa 0,0 l/m 0 min 0 min 16 W/m 6,3 km/h (2 Bft)
12.06.2015 20:07 23,3 C 21,1 C 76 % 0 lf 1008,0 hPa 0,0 l/m 0 min 0 min 16 W/m 8,4 km/h (2 Bft)
12.06.2015 20:08 23,3 C 21,1 C 76 % 0 lf 1008,0 hPa 0,0 l/m 0 min 0 min 16 W/m 4,2 km/h (1 Bft)
12.06.2015 20:09 23,3 C 21,1 C 76 % 0 lf 1008,0 hPa 0,0 l/m 0 min 0 min 16 W/m 8,4 km/h (2 Bft)
12.06.2015 20:10 23,3 C 21,1 C 77 % 0 lf 1008,0 hPa 0,0 l/m 0 min 0 min 16 W/m 8,4 km/h (2 Bft)
12.06.2015 20:11 23,3 C 21,1 C 77 % 0 lf 1008,0 hPa 0,0 l/m 0 min 0 min 16 W/m 10,5 km/h (2 Bft)
12.06.2015 20:12 23,3 C 21,1 C 77 % 0 lf 1008,0 hPa 0,0 l/m 0 min 0 min 16 W/m 8,4 km/h (2 Bft)
12.06.2015 20:14 23,3 C 21,1 C 77 % 0 lf 1008,0 hPa 0,0 l/m 0 min 0 min 16 W/m 6,3 km/h (2 Bft)
12.06.2015 20:16 23,2 C 21,1 C 77 % 0 lf 1008,0 hPa 0,0 l/m 0 min 0 min 17 W/m 8,4 km/h (2 Bft)
12.06.2015 20:18 23,2 C 21,1 C 77 % 0 lf 1008,0 hPa 0,0 l/m 0 min 0 min 18 W/m 10,5 km/h (2 Bft)
12.06.2015 20:20 23,2 C 21,1 C 77 % 0 lf 1008,0 hPa 0,0 l/m 0 min 0 min 18 W/m 8,4 km/h (2 Bft)
12.06.2015 20:22 23,2 C 21,1 C 77 % 0 lf 1008,1 hPa 0,0 l/m 0 min 0 min 18 W/m 8,4 km/h (2 Bft)
12.06.2015 20:23 23,2 C 21,1 C 77 % 0 lf 1008,1 hPa 0,0 l/m 0 min 0 min 18 W/m 6,3 km/h (2 Bft)
12.06.2015 20:24 23,1 C 21,1 C 77 % 0 lf 1008,0 hPa 0,0 l/m 0 min 0 min 18 W/m 6,3 km/h (2 Bft)
12.06.2015 20:25 23,1 C 21,1 C 77 % 0 lf 1008,0 hPa 0,0 l/m 0 min 0 min 18 W/m 8,4 km/h (2 Bft)
12.06.2015 20:26 23,1 C 21,1 C 77 % 0 lf 1008,1 hPa 0,0 l/m 0 min 0 min 16 W/m 6,3 km/h (2 Bft)
12.06.2015 20:27 23,1 C 21,1 C 77 % 0 lf 1008,1 hPa 0,0 l/m 0 min 0 min 16 W/m 6,3 km/h (2 Bft)
12.06.2015 20:28 23,1 C 21,1 C 77 % 0 lf 1008,1 hPa 0,0 l/m 0 min 0 min 16 W/m 6,3 km/h (2 Bft)
12.06.2015 20:29 23,1 C 21,1 C 77 % 0 lf 1008,1 hPa 0,0 l/m 0 min 0 min 14 W/m 8,4 km/h (2 Bft)
12.06.2015 20:30 23,1 C 21,1 C 77 % 0 lf 1008,1 hPa 0,0 l/m 0 min 0 min 14 W/m 10,5 km/h (2 Bft)
12.06.2015 20:31 23,1 C 21,1 C 77 % 0 lf 1008,1 hPa 0,0 l/m 0 min 0 min 14 W/m 8,4 km/h (2 Bft)
12.06.2015 20:32 23,1 C 21,1 C 77 % 0 lf 1008,1 hPa 0,0 l/m 0 min 0 min 14 W/m 8,4 km/h (2 Bft)
12.06.2015 20:33 23,1 C 21,1 C 78 % 0 lf 1008,1 hPa 0,0 l/m 0 min 0 min 12 W/m 8,4 km/h (2 Bft)
12.06.2015 20:34 23,1 C 21,1 C 78 % 0 lf 1008,1 hPa 0,0 l/m 0 min 0 min 14 W/m 10,5 km/h (2 Bft)
12.06.2015 20:35 23,1 C 21,1 C 78 % 0 lf 1008,1 hPa 0,0 l/m 0 min 0 min 14 W/m 10,5 km/h (2 Bft)
12.06.2015 20:36 23,1 C 21,1 C 78 % 0 lf 1008,0 hPa 0,0 l/m 0 min 0 min 14 W/m 6,3 km/h (2 Bft)
12.06.2015 20:38 23,1 C 21,1 C 78 % 0 lf 1008,1 hPa 0,0 l/m 0 min 0 min 14 W/m 10,5 km/h (2 Bft)
12.06.2015 20:40 23,1 C 21,1 C 78 % 0 lf 1008,2 hPa 0,0 l/m 0 min 0 min 13 W/m 14,6 km/h (3 Bft)
12.06.2015 20:42 23,1 C 21,1 C 78 % 0 lf 1008,2 hPa 0,0 l/m 0 min 0 min 12 W/m 10,5 km/h (2 Bft)
12.06.2015 20:44 23,1 C 21,1 C 79 % 0 lf 1008,2 hPa 0,0 l/m 0 min 0 min 12 W/m 10,5 km/h (2 Bft)
12.06.2015 20:46 23,1 C 21,1 C 79 % 0 lf 1008,2 hPa 0,0 l/m 0 min 0 min 12 W/m 10,5 km/h (2 Bft)
12.06.2015 20:48 23,1 C 21,1 C 79 % 0 lf 1008,3 hPa 0,0 l/m 0 min 0 min 12 W/m 12,6 km/h (3 Bft)
12.06.2015 20:50 23,1 C 21,1 C 79 % 0 lf 1008,3 hPa 0,0 l/m 0 min 0 min 13 W/m 12,6 km/h (3 Bft)
12.06.2015 20:52 23,0 C 21,1 C 79 % 0 lf 1008,4 hPa 0,0 l/m 0 min 0 min 14 W/m 12,6 km/h (3 Bft)
12.06.2015 20:54 23,0 C 21,1 C 79 % 0 lf 1008,3 hPa 0,0 l/m 0 min 0 min 15 W/m 23,0 km/h (4 Bft)
12.06.2015 20:56 23,0 C 21,1 C 79 % 0 lf 1008,3 hPa 0,0 l/m 0 min 0 min 16 W/m 14,6 km/h (3 Bft)
12.06.2015 20:58 23,0 C 21,1 C 79 % 0 lf 1008,4 hPa 0,0 l/m 0 min 0 min 16 W/m 14,6 km/h (3 Bft)
12.06.2015 21:00 23,0 C 21,1 C 79 % 0 lf 1008,5 hPa 0,0 l/m 0 min 0 min 16 W/m 18,8 km/h (3 Bft)
12.06.2015 21:02 23,0 C 21,1 C 79 % 0 lf 1008,5 hPa 0,0 l/m 0 min 0 min 16 W/m 23,0 km/h (4 Bft)
12.06.2015 21:04 22,9 C 21,1 C 79 % 0 lf 1008,6 hPa 0,0 l/m 0 min 0 min 16 W/m 18,8 km/h (3 Bft)
12.06.2015 21:06 22,9 C 21,1 C 78 % 0 lf 1008,6 hPa 0,0 l/m 0 min 0 min 16 W/m 18,8 km/h (3 Bft)
12.06.2015 21:08 22,9 C 21,1 C 78 % 0 lf 1008,6 hPa 0,0 l/m 0 min 0 min 16 W/m 23,0 km/h (4 Bft)
12.06.2015 21:10 22,9 C 21,1 C 78 % 0 lf 1008,6 hPa 0,0 l/m 0 min 0 min 14 W/m 23,0 km/h (4 Bft)
12.06.2015 21:12 22,9 C 21,1 C 77 % 0 lf 1008,6 hPa 0,0 l/m 0 min 0 min 11 W/m 18,8 km/h (3 Bft)
12.06.2015 21:14 22,9 C 21,1 C 77 % 0 lf 1008,6 hPa 0,0 l/m 0 min 0 min 9 W/m 12,6 km/h (3 Bft)
12.06.2015 21:16 22,9 C 21,1 C 77 % 0 lf 1008,6 hPa 0,0 l/m 0 min 0 min 7 W/m 27,2 km/h (4 Bft)
12.06.2015 21:18 22,9 C 21,1 C 77 % 0 lf 1008,7 hPa 0,0 l/m 0 min 0 min 5 W/m 23,0 km/h (4 Bft)
12.06.2015 21:20 22,9 C 19,4 C 78 % 3 lf 1008,6 hPa 0,2 l/m 0 min 2 min 0 W/m 18,8 km/h (3 Bft)
12.06.2015 21:22 22,9 C 18,9 C 79 % 0 lf 1008,7 hPa 0,0 l/m 0 min 2 min 0 W/m 20,9 km/h (4 Bft)
12.06.2015 21:24 22,9 C 18,9 C 79 % 3 lf 1008,7 hPa 0,0 l/m 0 min 2 min 0 W/m 16,7 km/h (3 Bft)
12.06.2015 21:26 22,8 C 18,3 C 79 % 2 lf 1008,7 hPa 0,0 l/m 0 min 2 min 0 W/m 16,7 km/h (3 Bft)
12.06.2015 21:28 22,8 C 18,3 C 79 % 0 lf 1008,8 hPa 0,0 l/m 0 min 2 min 0 W/m 18,8 km/h (3 Bft)
12.06.2015 21:30 22,7 C 18,9 C 79 % 0 lf 1008,7 hPa 0,0 l/m 0 min 0 min 0 W/m 12,6 km/h (3 Bft)
12.06.2015 21:32 22,7 C 18,9 C 80 % 0 lf 1008,7 hPa 0,0 l/m 0 min 0 min 0 W/m 12,6 km/h (3 Bft)
12.06.2015 21:34 22,6 C 18,9 C 80 % 0 lf 1008,7 hPa 0,0 l/m 0 min 0 min 0 W/m 14,6 km/h (3 Bft)
12.06.2015 21:36 22,6 C 18,9 C 80 % 0 lf 1008,7 hPa 0,0 l/m 0 min 0 min 0 W/m 12,6 km/h (3 Bft)
12.06.2015 21:38 22,6 C 18,9 C 80 % 0 lf 1008,7 hPa 0,0 l/m 0 min 0 min 0 W/m 10,5 km/h (2 Bft)
12.06.2015 21:40 22,5 C 19,4 C 81 % 0 lf 1008,8 hPa 0,0 l/m 0 min 0 min 0 W/m 12,6 km/h (3 Bft)
12.06.2015 21:42 22,4 C 19,4 C 81 % 0 lf 1008,8 hPa 0,0 l/m 0 min 0 min 0 W/m 8,4 km/h (2 Bft)
12.06.2015 21:44 22,4 C 19,4 C 81 % 0 lf 1008,9 hPa 0,0 l/m 0 min 0 min 0 W/m 8,4 km/h (2 Bft)
12.06.2015 21:46 22,4 C 19,4 C 82 % 0 lf 1008,9 hPa 0,0 l/m 0 min 0 min 0 W/m 8,4 km/h (2 Bft)
12.06.2015 21:48 22,3 C 19,4 C 82 % 0 lf 1008,9 hPa 0,0 l/m 0 min 0 min 0 W/m 12,6 km/h (3 Bft)
12.06.2015 21:50 22,3 C 19,4 C 82 % 0 lf 1008,9 hPa 0,0 l/m 0 min 0 min 0 W/m 10,5 km/h (2 Bft)
12.06.2015 21:52 22,2 C 19,4 C 82 % 0 lf 1008,9 hPa 0,0 l/m 0 min 0 min 0 W/m 14,6 km/h (3 Bft)
12.06.2015 21:54 22,2 C 19,4 C 82 % 0 lf 1008,9 hPa 0,0 l/m 0 min 0 min 0 W/m 18,8 km/h (3 Bft)
12.06.2015 21:56 22,1 C 19,4 C 83 % 0 lf 1008,9 hPa 0,0 l/m 0 min 2 min 0 W/m 14,6 km/h (3 Bft)
12.06.2015 21:58 22,1 C 19,4 C 83 % 0 lf 1008,9 hPa 0,0 l/m 0 min 2 min 0 W/m 14,6 km/h (3 Bft)
12.06.2015 22:00 22,1 C 19,4 C 83 % 0 lf 1008,9 hPa 0,0 l/m 0 min 0 min 0 W/m 12,6 km/h (3 Bft)
12.06.2015 22:02 22,0 C 20,0 C 83 % 0 lf 1008,9 hPa 0,0 l/m 0 min 0 min 0 W/m 14,6 km/h (3 Bft)
12.06.2015 22:04 21,9 C 20,0 C 84 % 0 lf 1008,8 hPa 0,0 l/m 0 min 0 min 0 W/m 14,6 km/h (3 Bft)
12.06.2015 22:06 21,9 C 20,0 C 84 % 0 lf 1008,8 hPa 0,0 l/m 0 min 0 min 0 W/m 12,6 km/h (3 Bft)
12.06.2015 22:08 21,9 C 20,0 C 84 % 0 lf 1008,7 hPa 0,0 l/m 0 min 0 min 0 W/m 14,6 km/h (3 Bft)
12.06.2015 22:10 21,8 C 20,0 C 84 % 0 lf 1008,7 hPa 0,0 l/m 0 min 0 min 0 W/m 16,7 km/h (3 Bft)
12.06.2015 22:12 21,8 C 20,0 C 84 % 0 lf 1008,7 hPa 0,0 l/m 0 min 0 min 0 W/m 12,6 km/h (3 Bft)
12.06.2015 22:14 21,8 C 20,0 C 84 % 0 lf 1008,7 hPa 0,0 l/m 0 min 0 min 0 W/m 12,6 km/h (3 Bft)
12.06.2015 22:16 21,8 C 20,0 C 84 % 0 lf 1008,7 hPa 0,0 l/m 0 min 0 min 0 W/m 14,6 km/h (3 Bft)
12.06.2015 22:18 21,7 C 20,0 C 84 % 0 lf 1008,8 hPa 0,0 l/m 0 min 0 min 0 W/m 12,6 km/h (3 Bft)
12.06.2015 22:20 21,7 C 20,0 C 84 % 0 lf 1008,7 hPa 0,0 l/m 0 min 0 min 0 W/m 10,5 km/h (2 Bft)
12.06.2015 22:22 21,7 C 20,0 C 84 % 0 lf 1008,7 hPa 0,0 l/m 0 min 0 min 0 W/m 14,6 km/h (3 Bft)
12.06.2015 22:24 21,7 C 20,0 C 84 % 0 lf 1008,7 hPa 0,0 l/m 0 min 0 min 0 W/m 14,6 km/h (3 Bft)
12.06.2015 22:26 21,6 C 20,0 C 85 % 0 lf 1008,7 hPa 0,0 l/m 0 min 0 min 0 W/m 16,7 km/h (3 Bft)
12.06.2015 22:28 21,6 C 20,0 C 85 % 0 lf 1008,7 hPa 0,0 l/m 0 min 0 min 0 W/m 20,9 km/h (4 Bft)
12.06.2015 22:30 21,6 C 20,0 C 85 % 0 lf 1008,7 hPa 0,0 l/m 0 min 0 min 0 W/m 18,8 km/h (3 Bft)
12.06.2015 22:32 21,6 C 20,0 C 85 % 0 lf 1008,7 hPa 0,0 l/m 0 min 0 min 0 W/m 16,7 km/h (3 Bft)
12.06.2015 22:34 21,5 C 20,0 C 85 % 0 lf 1008,6 hPa 0,0 l/m 0 min 0 min 0 W/m 12,6 km/h (3 Bft)
12.06.2015 22:36 21,5 C 20,0 C 85 % 0 lf 1008,6 hPa 0,0 l/m 0 min 0 min 0 W/m 12,6 km/h (3 Bft)
12.06.2015 22:38 21,5 C 19,4 C 84 % 0 lf 1008,7 hPa 0,0 l/m 0 min 0 min 0 W/m 14,6 km/h (3 Bft)
12.06.2015 22:40 21,5 C 19,4 C 84 % 0 lf 1008,6 hPa 0,0 l/m 0 min 0 min 0 W/m 14,6 km/h (3 Bft)
12.06.2015 22:42 21,4 C 19,4 C 85 % 0 lf 1008,6 hPa 0,0 l/m 0 min 0 min 0 W/m 12,6 km/h (3 Bft)
12.06.2015 22:44 21,4 C 19,4 C 85 % 0 lf 1008,6 hPa 0,0 l/m 0 min 0 min 0 W/m 12,6 km/h (3 Bft)
12.06.2015 22:46 21,4 C 19,4 C 85 % 0 lf 1008,6 hPa 0,0 l/m 0 min 0 min 0 W/m 14,6 km/h (3 Bft)
12.06.2015 22:48 21,4 C 19,4 C 85 % 0 lf 1008,6 hPa 0,0 l/m 0 min 0 min 0 W/m 12,6 km/h (3 Bft)
12.06.2015 22:50 21,4 C 19,4 C 85 % 0 lf 1008,5 hPa 0,0 l/m 0 min 0 min 0 W/m 10,5 km/h (2 Bft)
12.06.2015 22:52 21,4 C 19,4 C 85 % 0 lf 1008,5 hPa 0,0 l/m 0 min 0 min 0 W/m 12,6 km/h (3 Bft)
12.06.2015 22:54 21,4 C 19,4 C 85 % 0 lf 1008,5 hPa 0,0 l/m 0 min 0 min 0 W/m 14,6 km/h (3 Bft)
12.06.2015 22:56 21,3 C 19,4 C 85 % 0 lf 1008,4 hPa 0,0 l/m 0 min 0 min 0 W/m 16,7 km/h (3 Bft)
12.06.2015 22:58 21,3 C 19,4 C 85 % 0 lf 1008,3 hPa 0,0 l/m 0 min 0 min 0 W/m 10,5 km/h (2 Bft)
12.06.2015 23:00 21,3 C 19,4 C 85 % 0 lf 1008,4 hPa 0,0 l/m 0 min 0 min 0 W/m 10,5 km/h (2 Bft)
12.06.2015 23:02 21,3 C 19,4 C 85 % 0 lf 1008,4 hPa 0,0 l/m 0 min 0 min 0 W/m 12,6 km/h (3 Bft)
12.06.2015 23:04 21,3 C 19,4 C 85 % 0 lf 1008,5 hPa 0,0 l/m 0 min 0 min 0 W/m 12,6 km/h (3 Bft)
12.06.2015 23:06 21,2 C 19,4 C 85 % 0 lf 1008,4 hPa 0,0 l/m 0 min 0 min 0 W/m 14,6 km/h (3 Bft)
12.06.2015 23:08 21,2 C 18,9 C 85 % 0 lf 1008,4 hPa 0,0 l/m 0 min 0 min 0 W/m 10,5 km/h (2 Bft)
12.06.2015 23:10 21,2 C 18,9 C 85 % 1 lf 1008,3 hPa 0,0 l/m 0 min 0 min 0 W/m 10,5 km/h (2 Bft)
12.06.2015 23:12 21,2 C 18,9 C 85 % 1 lf 1008,3 hPa 0,0 l/m 0 min 0 min 0 W/m 10,5 km/h (2 Bft)
12.06.2015 23:14 21,2 C 18,9 C 85 % 1 lf 1008,3 hPa 0,0 l/m 0 min 0 min 0 W/m 10,5 km/h (2 Bft)
12.06.2015 23:16 21,1 C 18,9 C 85 % 1 lf 1008,4 hPa 0,0 l/m 0 min 0 min 0 W/m 10,5 km/h (2 Bft)
12.06.2015 23:18 21,1 C 18,9 C 85 % 1 lf 1008,3 hPa 0,0 l/m 0 min 0 min 0 W/m 14,6 km/h (3 Bft)
12.06.2015 23:20 21,1 C 18,9 C 85 % 1 lf 1008,3 hPa 0,0 l/m 0 min 0 min 0 W/m 10,5 km/h (2 Bft)
12.06.2015 23:22 21,0 C 18,9 C 85 % 0 lf 1008,3 hPa 0,0 l/m 0 min 0 min 0 W/m 12,6 km/h (3 Bft)
12.06.2015 23:24 21,0 C 18,9 C 85 % 0 lf 1008,2 hPa 0,0 l/m 0 min 0 min 0 W/m 14,6 km/h (3 Bft)
12.06.2015 23:26 20,9 C 18,9 C 85 % 0 lf 1008,2 hPa 0,0 l/m 0 min 0 min 0 W/m 16,7 km/h (3 Bft)
12.06.2015 23:28 20,9 C 18,9 C 85 % 0 lf 1008,2 hPa 0,0 l/m 0 min 0 min 0 W/m 14,6 km/h (3 Bft)
12.06.2015 23:30 20,9 C 18,9 C 85 % 0 lf 1008,2 hPa 0,0 l/m 0 min 0 min 0 W/m 12,6 km/h (3 Bft)
12.06.2015 23:32 20,8 C 18,9 C 85 % 0 lf 1008,2 hPa 0,0 l/m 0 min 0 min 0 W/m 12,6 km/h (3 Bft)
12.06.2015 23:34 20,8 C 18,9 C 85 % 0 lf 1008,2 hPa 0,0 l/m 0 min 0 min 0 W/m 14,6 km/h (3 Bft)
12.06.2015 23:36 20,8 C 18,9 C 85 % 0 lf 1008,3 hPa 0,0 l/m 0 min 0 min 0 W/m 12,6 km/h (3 Bft)
12.06.2015 23:38 20,7 C 18,9 C 85 % 0 lf 1008,2 hPa 0,0 l/m 0 min 0 min 0 W/m 14,6 km/h (3 Bft)
12.06.2015 23:40 20,7 C 18,9 C 85 % 1 lf 1008,2 hPa 0,0 l/m 0 min 0 min 0 W/m 12,6 km/h (3 Bft)
12.06.2015 23:42 20,7 C 18,9 C 85 % 1 lf 1008,2 hPa 0,0 l/m 0 min 0 min 0 W/m 8,4 km/h (2 Bft)
12.06.2015 23:44 20,7 C 18,3 C 85 % 1 lf 1008,1 hPa 0,0 l/m 0 min 0 min 0 W/m 10,5 km/h (2 Bft)
12.06.2015 23:46 20,6 C 18,3 C 85 % 1 lf 1008,1 hPa 0,0 l/m 0 min 0 min 0 W/m 8,4 km/h (2 Bft)
12.06.2015 23:48 20,6 C 18,3 C 85 % 1 lf 1008,1 hPa 0,0 l/m 0 min 0 min 0 W/m 8,4 km/h (2 Bft)
12.06.2015 23:50 20,6 C 18,3 C 85 % 1 lf 1008,1 hPa 0,0 l/m 0 min 0 min 0 W/m 8,4 km/h (2 Bft)
12.06.2015 23:52 20,6 C 18,3 C 85 % 1 lf 1008,2 hPa 0,0 l/m 0 min 0 min 0 W/m 14,6 km/h (3 Bft)
12.06.2015 23:54 20,5 C 18,3 C 85 % 0 lf 1008,1 hPa 0,0 l/m 0 min 0 min 0 W/m 18,8 km/h (3 Bft)
12.06.2015 23:56 20,4 C 18,3 C 85 % 0 lf 1008,2 hPa 0,0 l/m 0 min 0 min 0 W/m 16,7 km/h (3 Bft)
12.06.2015 23:58 20,4 C 18,3 C 85 % 0 lf 1008,1 hPa 0,0 l/m 0 min 0 min 0 W/m 10,5 km/h (2 Bft)
_ Min-Zeit 06:20 05:46 13:16 00:00 17:48 - - - - 05:14
Minimum _ 12,7 C 10,6 C 39 % 0 lf 1007,6 hPa - - - - 0,0 km/h (0 Bft)
_ Max-Zeit 17:34 13:14 07:00 18:47 00:00 21:20 06:02 21:20 14:04 18:42
Maximum _ 32,2 C 32,8 C 87 % 15 lf 1014,1 hPa 0,2 l/m 2 min 2 min 906 W/m 29,3 km/h
SW (5 Bft)
Durchschnitt _ 22,5 C 20,8 C 64 % 0 lf 1010,7 hPa #0,2 l/m #11:20 h #35 min. 455 W/m 11,8 km/h (2 Bft)
© 2015 W. Hausmann